Observation data for Amarillo 7 South Southeast on 12/08/2019      Previous  Date       Current Mesonet Observations  Soil Data  Daily Summary Page  Observations in Plain Language
KAM1 080600Z 24011KT 07/01 A2994 RMK A01 T00720006  RH  063%=      5-min Rain = 0
KAM1 080601Z 24011KT 07/01 A2994 RMK A01 T00720005  RH  063%=      5-min Rain = 0
KAM1 080602Z 24010KT 07/01 A2994 RMK A01 T00720005  RH  063%=      5-min Rain = 0
KAM1 080603Z 24010KT 07/01 A2994 RMK A01 T00720005  RH  063%=      5-min Rain = 0
KAM1 080604Z 24012KT 07/01 A2994 RMK A01 T00710005  RH  063%=      5-min Rain = 0
KAM1 080605Z 24012KT 07/01 A2994 RMK A01 T00710005  RH  063%=      5-min Rain = 0
KAM1 080606Z 24011KT 07/01 A2994 RMK A01 T00710005  RH  063%=      5-min Rain = 0
KAM1 080607Z 24010KT 07/01 A2994 RMK A01 T00710005  RH  063%=      5-min Rain = 0
KAM1 080608Z 24011KT 07/01 A2994 RMK A01 T00720005  RH  063%=      5-min Rain = 0
KAM1 080609Z 24009KT 07/01 A2994 RMK A01 T00720005  RH  063%=      5-min Rain = 0
KAM1 080610Z 25007KT 07/01 A2994 RMK A01 T00720005  RH  062%=      5-min Rain = 0
KAM1 080611Z 25008KT 07/00 A2994 RMK A01 T00710004  RH  063%=      5-min Rain = 0
KAM1 080612Z 26007KT 07/00 A2994 RMK A01 T00700004  RH  063%=      5-min Rain = 0
KAM1 080613Z 26005KT 07/00 A2994 RMK A01 T00700004  RH  063%=      5-min Rain = 0
KAM1 080614Z 26006KT 07/00 A2994 RMK A01 T00700004  RH  063%=      5-min Rain = 0
KAM1 080615Z 27006KT 07/00 A2994 RMK A01 T00690003  RH  063%=      5-min Rain = 0
KAM1 080616Z 27005KT 07/00 A2994 RMK A01 T00690003  RH  063%=      5-min Rain = 0
KAM1 080617Z 28006KT 07/00 A2994 RMK A01 T00680003  RH  063%=      5-min Rain = 0
KAM1 080618Z 28005KT 07/00 A2994 RMK A01 T00670002  RH  063%=      5-min Rain = 0
KAM1 080619Z 28005KT 07/00 A2994 RMK A01 T00670003  RH  064%=      5-min Rain = 0
KAM1 080620Z 29005KT 07/00 A2994 RMK A01 T00660002  RH  064%=      5-min Rain = 0
KAM1 080621Z 29004KT 07/00 A2994 RMK A01 T00650002  RH  064%=      5-min Rain = 0
KAM1 080622Z 30004KT 07/00 A2994 RMK A01 T00650002  RH  064%=      5-min Rain = 0
KAM1 080623Z 29005KT 06/00 A2994 RMK A01 T00640001  RH  064%=      5-min Rain = 0
KAM1 080624Z 30005KT 06/00 A2994 RMK A01 T00630001  RH  065%=      5-min Rain = 0
KAM1 080625Z 29005KT 06/00 A2994 RMK A01 T00610000  RH  065%=      5-min Rain = 0
KAM1 080626Z 29005KT 06/00 A2994 RMK A01 T00610001  RH  066%=      5-min Rain = 0
KAM1 080627Z 29005KT 06/00 A2994 RMK A01 T00610001  RH  066%=      5-min Rain = 0
KAM1 080628Z 29006KT 06/00 A2994 RMK A01 T00610001  RH  065%=      5-min Rain = 0
KAM1 080629Z 28005KT 06/00 A2994 RMK A01 T00600001  RH  065%=      5-min Rain = 0
KAM1 080630Z 28006KT 06/00 A2994 RMK A01 T00600000  RH  066%=      5-min Rain = 0
KAM1 080631Z 28006KT 06/00 A2994 RMK A01 T00590000  RH  066%=      5-min Rain = 0
KAM1 080632Z 29007KT 06/00 A2994 RMK A01 T00580000  RH  066%=      5-min Rain = 0
KAM1 080633Z 29007KT 06/00 A2994 RMK A01 T00580000  RH  067%=      5-min Rain = 0
KAM1 080634Z 29007KT 06/00 A2994 RMK A01 T00580001  RH  067%=      5-min Rain = 0
KAM1 080635Z 29008KT 06/00 A2994 RMK A01 T00590001  RH  067%=      5-min Rain = 0
KAM1 080636Z 29008KT 06/00 A2994 RMK A01 T00590002  RH  067%=      5-min Rain = 0
KAM1 080637Z 29009KT 06/00 A2994 RMK A01 T00590002  RH  067%=      5-min Rain = 0
KAM1 080638Z 28009KT 06/00 A2994 RMK A01 T00600003  RH  067%=      5-min Rain = 0
KAM1 080639Z 28009KT 06/00 A2994 RMK A01 T00610003  RH  066%=      5-min Rain = 0
KAM1 080640Z 28009KT 06/00 A2994 RMK A01 T00630004  RH  066%=      5-min Rain = 0
KAM1 080641Z 28008KT 07/00 A2994 RMK A01 T00650004  RH  065%=      5-min Rain = 0
KAM1 080642Z 28007KT 07/00 A2994 RMK A01 T00650004  RH  065%=      5-min Rain = 0
KAM1 080643Z 28007KT 07/00 A2994 RMK A01 T00650003  RH  065%=      5-min Rain = 0
KAM1 080644Z 28009KT 07/00 A2994 RMK A01 T00650003  RH  065%=      5-min Rain = 0
KAM1 080645Z 28009KT 06/00 A2994 RMK A01 T00640003  RH  065%=      5-min Rain = 0
KAM1 080646Z 27008KT 07/00 A2993 RMK A01 T00650003  RH  065%=      5-min Rain = 0
KAM1 080647Z 27009KT 07/00 A2993 RMK A01 T00650003  RH  065%=      5-min Rain = 0
KAM1 080648Z 28007KT 07/00 A2993 RMK A01 T00650003  RH  064%=      5-min Rain = 0
KAM1 080649Z 27008KT 07/00 A2993 RMK A01 T00650003  RH  064%=      5-min Rain = 0
KAM1 080650Z 27008KT 06/00 A2993 RMK A01 T00640002  RH  064%=      5-min Rain = 0
KAM1 080651Z 27008KT 06/00 A2993 RMK A01 T00630002  RH  065%=      5-min Rain = 0
KAM1 080652Z 27007KT 06/00 A2993 RMK A01 T00630002  RH  065%=      5-min Rain = 0
KAM1 080653Z 27007KT 06/00 A2992 RMK A01 T00620001  RH  065%=      5-min Rain = 0
KAM1 080654Z 28008KT 06/00 A2992 RMK A01 T00610001  RH  065%=      5-min Rain = 0
KAM1 080655Z 29007KT 06/00 A2993 RMK A01 T00600001  RH  066%=      5-min Rain = 0
KAM1 080656Z 30007KT 06/00 A2993 RMK A01 T00600001  RH  066%=      5-min Rain = 0
KAM1 080657Z 30007KT 06/00 A2993 RMK A01 T00590001  RH  066%=      5-min Rain = 0
KAM1 080658Z 30006KT 06/00 A2993 RMK A01 T005800-0  RH  066%=      5-min Rain = 0
KAM1 080659Z 31006KT 06/M00 A2993 RMK A01 T00571001  RH  066%=      5-min Rain = 0
KAM1 080700Z 30005KT 06/M00 A2993 RMK A01 T00551002  RH  067%=      5-min Rain = 0
KAM1 080701Z 30006KT 05/M00 A2993 RMK A01 T00531003  RH  067%=      5-min Rain = 0
KAM1 080702Z 30006KT 05/M00 A2993 RMK A01 T00511004  RH  067%=      5-min Rain = 0
KAM1 080703Z 30007KT 05/M01 A2994 RMK A01 T00491006  RH  068%=      5-min Rain = 0
KAM1 080704Z 30007KT 05/M01 A2994 RMK A01 T00461007  RH  068%=      5-min Rain = 0
KAM1 080705Z 30007KT 04/M01 A2994 RMK A01 T00441008  RH  069%=      5-min Rain = 0
KAM1 080706Z 30007KT 04/M01 A2994 RMK A01 T00431007  RH  070%=      5-min Rain = 0
KAM1 080707Z 30007KT 04/M01 A2994 RMK A01 T00431006  RH  071%=      5-min Rain = 0
KAM1 080708Z 30007KT 04/M01 A2994 RMK A01 T00431005  RH  071%=      5-min Rain = 0
KAM1 080709Z 30007KT 04/M01 A2994 RMK A01 T00431005  RH  071%=      5-min Rain = 0
KAM1 080710Z 29007KT 05/M00 A2994 RMK A01 T00451004  RH  071%=      5-min Rain = 0
KAM1 080711Z 29007KT 05/M00 A2994 RMK A01 T00451003  RH  071%=      5-min Rain = 0
KAM1 080712Z 29007KT 05/M00 A2993 RMK A01 T00461003  RH  070%=      5-min Rain = 0
KAM1 080713Z 29007KT 05/M00 A2993 RMK A01 T00471003  RH  070%=      5-min Rain = 0
KAM1 080714Z 29006KT 05/M00 A2993 RMK A01 T00481003  RH  070%=      5-min Rain = 0
KAM1 080715Z 29006KT 05/M00 A2993 RMK A01 T00491002  RH  069%=      5-min Rain = 0
KAM1 080716Z 29006KT 05/M00 A2993 RMK A01 T00491003  RH  069%=      5-min Rain = 0
KAM1 080717Z 29007KT 05/M00 A2993 RMK A01 T00501002  RH  069%=      5-min Rain = 0
KAM1 080718Z 29007KT 05/M00 A2993 RMK A01 T00501002  RH  069%=      5-min Rain = 0
KAM1 080719Z 28007KT 05/M00 A2993 RMK A01 T00511002  RH  069%=      5-min Rain = 0
KAM1 080720Z 28008KT 05/M00 A2993 RMK A01 T00521001  RH  069%=      5-min Rain = 0
KAM1 080721Z 27007KT 05/M00 A2992 RMK A01 T00531001  RH  068%=      5-min Rain = 0
KAM1 080722Z 28007KT 06/00 A2992 RMK A01 T00550000  RH  068%=      5-min Rain = 0
KAM1 080723Z 28008KT 06/00 A2992 RMK A01 T00560000  RH  067%=      5-min Rain = 0
KAM1 080724Z 27007KT 06/00 A2993 RMK A01 T00560000  RH  067%=      5-min Rain = 0
KAM1 080725Z 27007KT 06/00 A2993 RMK A01 T005600-0  RH  067%=      5-min Rain = 0
KAM1 080726Z 26009KT 06/M00 A2993 RMK A01 T00561001  RH  067%=      5-min Rain = 0
KAM1 080727Z 26009KT 05/M00 A2993 RMK A01 T00541002  RH  067%=      5-min Rain = 0
KAM1 080728Z 26009KT 05/M00 A2993 RMK A01 T00521003  RH  068%=      5-min Rain = 0
KAM1 080729Z 26009KT 05/M00 A2993 RMK A01 T00511003  RH  068%=      5-min Rain = 0
KAM1 080730Z 26009KT 05/M00 A2993 RMK A01 T00491004  RH  069%=      5-min Rain = 0
KAM1 080731Z 25009KT 05/M00 A2993 RMK A01 T00481004  RH  069%=      5-min Rain = 0
KAM1 080732Z 26008KT 05/M00 A2993 RMK A01 T00471003  RH  070%=      5-min Rain = 0
KAM1 080733Z 26008KT 05/M00 A2993 RMK A01 T00461004  RH  070%=      5-min Rain = 0
KAM1 080734Z 26008KT 05/M00 A2993 RMK A01 T00461004  RH  070%=      5-min Rain = 0
KAM1 080735Z 26007KT 05/M00 A2993 RMK A01 T00451004  RH  071%=      5-min Rain = 0
KAM1 080736Z 26007KT 05/M00 A2992 RMK A01 T00451004  RH  071%=      5-min Rain = 0
KAM1 080737Z 26007KT 04/M00 A2992 RMK A01 T00441004  RH  071%=      5-min Rain = 0
KAM1 080738Z 26007KT 04/M00 A2992 RMK A01 T00441004  RH  071%=      5-min Rain = 0
KAM1 080739Z 26007KT 04/M00 A2993 RMK A01 T00441004  RH  071%=      5-min Rain = 0
KAM1 080740Z 26007KT 04/M01 A2993 RMK A01 T00441005  RH  071%=      5-min Rain = 0
KAM1 080741Z 26007KT 04/M00 A2992 RMK A01 T00441004  RH  071%=      5-min Rain = 0
KAM1 080742Z 26008KT 04/M00 A2992 RMK A01 T00441004  RH  071%=      5-min Rain = 0
KAM1 080743Z 26008KT 05/M00 A2992 RMK A01 T00451004  RH  070%=      5-min Rain = 0
KAM1 080744Z 26008KT 05/M00 A2992 RMK A01 T00461004  RH  070%=      5-min Rain = 0
KAM1 080745Z 26008KT 05/M00 A2992 RMK A01 T00481003  RH  070%=      5-min Rain = 0
KAM1 080746Z 26008KT 05/M00 A2992 RMK A01 T00491003  RH  069%=      5-min Rain = 0
KAM1 080747Z 26008KT 05/M00 A2992 RMK A01 T00491004  RH  069%=      5-min Rain = 0
KAM1 080748Z 26008KT 05/M00 A2992 RMK A01 T00491004  RH  069%=      5-min Rain = 0
KAM1 080749Z 27007KT 05/M00 A2992 RMK A01 T00491004  RH  068%=      5-min Rain = 0
KAM1 080750Z 27007KT 05/M00 A2992 RMK A01 T00501004  RH  068%=      5-min Rain = 0
KAM1 080751Z 28007KT 05/M00 A2992 RMK A01 T00501004  RH  068%=      5-min Rain = 0
KAM1 080752Z 28007KT 05/M00 A2992 RMK A01 T00501004  RH  068%=      5-min Rain = 0
KAM1 080753Z 28007KT 05/M01 A2992 RMK A01 T00511005  RH  067%=      5-min Rain = 0
KAM1 080754Z 28007KT 05/M01 A2992 RMK A01 T00511005  RH  067%=      5-min Rain = 0
KAM1 080755Z 27007KT 05/M01 A2992 RMK A01 T00501005  RH  067%=      5-min Rain = 0
KAM1 080756Z 28007KT 05/M01 A2992 RMK A01 T00511006  RH  067%=      5-min Rain = 0
KAM1 080757Z 27007KT 05/M01 A2992 RMK A01 T00511005  RH  067%=      5-min Rain = 0
KAM1 080758Z 27007KT 05/M01 A2992 RMK A01 T00511005  RH  067%=      5-min Rain = 0
KAM1 080759Z 27007KT 05/M01 A2992 RMK A01 T00521005  RH  067%=      5-min Rain = 0
KAM1 080800Z 27007KT 05/M01 A2992 RMK A01 T00521005  RH  066%=      5-min Rain = 0
KAM1 080801Z 28008KT 05/M01 A2992 RMK A01 T00531005  RH  066%=      5-min Rain = 0
KAM1 080802Z 28008KT 05/M01 A2992 RMK A01 T00541005  RH  066%=      5-min Rain = 0
KAM1 080803Z 28008KT 06/M01 A2992 RMK A01 T00551005  RH  065%=      5-min Rain = 0
KAM1 080804Z 27008KT 06/M01 A2992 RMK A01 T00561005  RH  065%=      5-min Rain = 0
KAM1 080805Z 27007KT 06/M01 A2992 RMK A01 T00571005  RH  064%=      5-min Rain = 0
KAM1 080806Z 27008KT 06/M01 A2992 RMK A01 T00571005  RH  064%=      5-min Rain = 0
KAM1 080807Z 27008KT 06/M01 A2993 RMK A01 T00561006  RH  065%=      5-min Rain = 0
KAM1 080808Z 27008KT 06/M01 A2993 RMK A01 T00551006  RH  065%=      5-min Rain = 0
KAM1 080809Z 27008KT 06/M01 A2993 RMK A01 T00551006  RH  065%=      5-min Rain = 0
KAM1 080810Z 27007KT 06/M01 A2993 RMK A01 T00561005  RH  065%=      5-min Rain = 0
KAM1 080811Z 27008KT 06/M01 A2993 RMK A01 T00581005  RH  064%=      5-min Rain = 0
KAM1 080812Z 28008KT 06/M00 A2993 RMK A01 T00591004  RH  064%=      5-min Rain = 0
KAM1 080813Z 27008KT 06/M00 A2993 RMK A01 T00611004  RH  063%=      5-min Rain = 0
KAM1 080814Z 27008KT 06/M00 A2993 RMK A01 T00621004  RH  063%=      5-min Rain = 0
KAM1 080815Z 27007KT 06/M01 A2993 RMK A01 T00621005  RH  062%=      5-min Rain = 0
KAM1 080816Z 27008KT 06/M00 A2993 RMK A01 T00631004  RH  062%=      5-min Rain = 0
KAM1 080817Z 28008KT 06/M00 A2993 RMK A01 T00641004  RH  062%=      5-min Rain = 0
KAM1 080818Z 27007KT 07/M00 A2993 RMK A01 T00651004  RH  061%=      5-min Rain = 0
KAM1 080819Z 27006KT 07/M00 A2993 RMK A01 T00671003  RH  061%=      5-min Rain = 0
KAM1 080820Z 26006KT 07/M00 A2993 RMK A01 T00671004  RH  061%=      5-min Rain = 0
KAM1 080821Z 27007KT 07/M00 A2993 RMK A01 T00651004  RH  061%=      5-min Rain = 0
KAM1 080822Z 27007KT 06/M00 A2993 RMK A01 T00641004  RH  062%=      5-min Rain = 0
KAM1 080823Z 27006KT 06/M00 A2993 RMK A01 T00631004  RH  062%=      5-min Rain = 0
KAM1 080824Z 26006KT 06/M00 A2993 RMK A01 T00631004  RH  062%=      5-min Rain = 0
KAM1 080825Z 26006KT 06/M00 A2993 RMK A01 T00621004  RH  062%=      5-min Rain = 0
KAM1 080826Z 26006KT 06/M00 A2993 RMK A01 T00621004  RH  062%=      5-min Rain = 0
KAM1 080827Z 25006KT 06/M01 A2993 RMK A01 T00611005  RH  063%=      5-min Rain = 0
KAM1 080828Z 25006KT 06/M01 A2993 RMK A01 T00611005  RH  063%=      5-min Rain = 0
KAM1 080829Z 26006KT 06/M01 A2993 RMK A01 T00601005  RH  063%=      5-min Rain = 0
KAM1 080830Z 26006KT 06/M01 A2993 RMK A01 T00601005  RH  063%=      5-min Rain = 0
KAM1 080831Z 26006KT 06/M01 A2993 RMK A01 T00601005  RH  063%=      5-min Rain = 0
KAM1 080832Z 27005KT 06/M01 A2993 RMK A01 T00591006  RH  063%=      5-min Rain = 0
KAM1 080833Z 27005KT 06/M01 A2993 RMK A01 T00581006  RH  063%=      5-min Rain = 0
KAM1 080834Z 28005KT 06/M01 A2992 RMK A01 T00581006  RH  063%=      5-min Rain = 0
KAM1 080835Z 27005KT 06/M01 A2992 RMK A01 T00581006  RH  063%=      5-min Rain = 0
KAM1 080836Z 27005KT 06/M01 A2992 RMK A01 T00581006  RH  063%=      5-min Rain = 0
KAM1 080837Z 27005KT 06/M01 A2992 RMK A01 T00591006  RH  063%=      5-min Rain = 0
KAM1 080838Z 27005KT 06/M01 A2993 RMK A01 T00591006  RH  063%=      5-min Rain = 0
KAM1 080839Z 27005KT 06/M01 A2993 RMK A01 T00601006  RH  063%=      5-min Rain = 0
KAM1 080840Z 26006KT 06/M01 A2993 RMK A01 T00601007  RH  062%=      5-min Rain = 0
KAM1 080841Z 26006KT 06/M01 A2993 RMK A01 T00611007  RH  062%=      5-min Rain = 0
KAM1 080842Z 26006KT 06/M01 A2992 RMK A01 T00601007  RH  062%=      5-min Rain = 0
KAM1 080843Z 26006KT 06/M01 A2992 RMK A01 T00611006  RH  062%=      5-min Rain = 0
KAM1 080844Z 27006KT 06/M01 A2992 RMK A01 T00611006  RH  062%=      5-min Rain = 0
KAM1 080845Z 27006KT 06/M00 A2993 RMK A01 T00631004  RH  062%=      5-min Rain = 0
KAM1 080846Z 27006KT 07/M00 A2993 RMK A01 T00651003  RH  062%=      5-min Rain = 0
KAM1 080847Z 27006KT 07/M00 A2993 RMK A01 T00661002  RH  062%=      5-min Rain = 0
KAM1 080848Z 27005KT 07/M00 A2993 RMK A01 T00681001  RH  061%=      5-min Rain = 0
KAM1 080849Z 28006KT 07/M00 A2993 RMK A01 T00681001  RH  061%=      5-min Rain = 0
KAM1 080850Z 28007KT 07/00 A2993 RMK A01 T00700000  RH  061%=      5-min Rain = 0
KAM1 080851Z 28008KT 07/00 A2993 RMK A01 T00740003  RH  061%=      5-min Rain = 0
KAM1 080852Z 28008KT 08/01 A2992 RMK A01 T00810005  RH  059%=      5-min Rain = 0
KAM1 080853Z 28008KT 09/01 A2992 RMK A01 T00870006  RH  057%=      5-min Rain = 0
KAM1 080854Z 28008KT 09/01 A2992 RMK A01 T00910005  RH  055%=      5-min Rain = 0
KAM1 080855Z 29009KT 09/00 A2992 RMK A01 T00940004  RH  053%=      5-min Rain = 0
KAM1 080856Z 28008KT 10/00 A2992 RMK A01 T00970003  RH  052%=      5-min Rain = 0
KAM1 080857Z 28007KT 10/00 A2992 RMK A01 T00980002  RH  051%=      5-min Rain = 0
KAM1 080858Z 28008KT 10/00 A2992 RMK A01 T00990002  RH  051%=      5-min Rain = 0
KAM1 080859Z 28008KT 10/00 A2992 RMK A01 T01000001  RH  050%=      5-min Rain = 0
KAM1 080900Z 27007KT 10/00 A2992 RMK A01 T01010001  RH  050%=      5-min Rain = 0
KAM1 080901Z 27007KT 10/00 A2992 RMK A01 T01010000  RH  050%=      5-min Rain = 0
KAM1 080902Z 27007KT 10/00 A2992 RMK A01 T01010001  RH  050%=      5-min Rain = 0
KAM1 080903Z 27007KT 10/00 A2992 RMK A01 T01010001  RH  050%=      5-min Rain = 0
KAM1 080904Z 28007KT 10/00 A2992 RMK A01 T01000000  RH  050%=      5-min Rain = 0
KAM1 080905Z 28006KT 10/00 A2992 RMK A01 T010000-0  RH  050%=      5-min Rain = 0
KAM1 080906Z 29006KT 10/00 A2992 RMK A01 T01000000  RH  050%=      5-min Rain = 0
KAM1 080907Z 29005KT 10/00 A2992 RMK A01 T009900-0  RH  050%=      5-min Rain = 0
KAM1 080908Z 29005KT 10/M00 A2992 RMK A01 T00981001  RH  050%=      5-min Rain = 0
KAM1 080909Z 30004KT 10/M00 A2992 RMK A01 T00981001  RH  050%=      5-min Rain = 0
KAM1 080910Z 31004KT 10/M00 A2991 RMK A01 T00961001  RH  051%=      5-min Rain = 0
KAM1 080911Z 31004KT 10/M00 A2991 RMK A01 T00951002  RH  051%=      5-min Rain = 0
KAM1 080912Z 32003KT 09/M00 A2991 RMK A01 T00941003  RH  051%=      5-min Rain = 0
KAM1 080913Z 32003KT 09/M00 A2991 RMK A01 T00911004  RH  051%=      5-min Rain = 0
KAM1 080914Z 31004KT 09/M01 A2991 RMK A01 T00881005  RH  052%=      5-min Rain = 0
KAM1 080915Z 30004KT 09/M01 A2991 RMK A01 T00851006  RH  053%=      5-min Rain = 0
KAM1 080916Z 30004KT 08/M01 A2991 RMK A01 T00831006  RH  053%=      5-min Rain = 0
KAM1 080917Z 30005KT 08/M01 A2991 RMK A01 T00821006  RH  054%=      5-min Rain = 0
KAM1 080918Z 29005KT 08/M01 A2992 RMK A01 T00821005  RH  054%=      5-min Rain = 0
KAM1 080919Z 29005KT 08/M01 A2992 RMK A01 T00831005  RH  054%=      5-min Rain = 0
KAM1 080920Z 29005KT 08/M01 A2992 RMK A01 T00841005  RH  054%=      5-min Rain = 0
KAM1 080921Z 28004KT 08/M01 A2992 RMK A01 T00831005  RH  054%=      5-min Rain = 0
KAM1 080922Z 28002KT 08/M01 A2991 RMK A01 T00831005  RH  054%=      5-min Rain = 0
KAM1 080923Z 27002KT 08/M00 A2991 RMK A01 T00821004  RH  055%=      5-min Rain = 0
KAM1 080924Z 28003KT 08/M00 A2991 RMK A01 T00801004  RH  056%=      5-min Rain = 0
KAM1 080925Z 28004KT 08/M00 A2991 RMK A01 T00791004  RH  056%=      5-min Rain = 0
KAM1 080926Z 28005KT 08/M00 A2991 RMK A01 T00801003  RH  056%=      5-min Rain = 0
KAM1 080927Z 28005KT 08/M00 A2991 RMK A01 T00811003  RH  055%=      5-min Rain = 0
KAM1 080928Z 28004KT 08/M00 A2991 RMK A01 T00821004  RH  055%=      5-min Rain = 0
KAM1 080929Z 28005KT 08/M00 A2991 RMK A01 T00811003  RH  056%=      5-min Rain = 0
KAM1 080930Z 28005KT 08/M00 A2991 RMK A01 T00791003  RH  056%=      5-min Rain = 0
KAM1 080931Z 28006KT 08/M00 A2991 RMK A01 T00771003  RH  057%=      5-min Rain = 0
KAM1 080932Z 28006KT 08/M00 A2991 RMK A01 T00761003  RH  057%=      5-min Rain = 0
KAM1 080933Z 27006KT 08/M00 A2991 RMK A01 T00771002  RH  057%=      5-min Rain = 0
KAM1 080934Z 27006KT 08/M00 A2991 RMK A01 T00781002  RH  057%=      5-min Rain = 0
KAM1 080935Z 27005KT 08/M00 A2991 RMK A01 T00781002  RH  057%=      5-min Rain = 0
KAM1 080936Z 27006KT 08/M00 A2991 RMK A01 T00781001  RH  057%=      5-min Rain = 0
KAM1 080937Z 27006KT 08/M00 A2991 RMK A01 T00771001  RH  057%=      5-min Rain = 0
KAM1 080938Z 27006KT 08/M00 A2991 RMK A01 T00771001  RH  058%=      5-min Rain = 0
KAM1 080939Z 27006KT 08/M00 A2991 RMK A01 T00761002  RH  058%=      5-min Rain = 0
KAM1 080940Z 26006KT 08/M00 A2991 RMK A01 T00751002  RH  058%=      5-min Rain = 0
KAM1 080941Z 25006KT 07/M00 A299 RMK A01 T00731002  RH  059%=      5-min Rain = 0
KAM1 080942Z 24006KT 07/M00 A299 RMK A01 T00721002  RH  059%=      5-min Rain = 0
KAM1 080943Z 24006KT 07/M00 A299 RMK A01 T00711002  RH  060%=      5-min Rain = 0
KAM1 080944Z 24006KT 07/M00 A299 RMK A01 T00701002  RH  060%=      5-min Rain = 0
KAM1 080945Z 23006KT 07/M00 A299 RMK A01 T00691001  RH  061%=      5-min Rain = 0
KAM1 080946Z 23006KT 07/M00 A299 RMK A01 T00681001  RH  061%=      5-min Rain = 0
KAM1 080947Z 24007KT 07/M00 A299 RMK A01 T00671001  RH  062%=      5-min Rain = 0
KAM1 080948Z 24007KT 07/M00 A299 RMK A01 T00671001  RH  062%=      5-min Rain = 0
KAM1 080949Z 24007KT 07/M00 A299 RMK A01 T00671001  RH  062%=      5-min Rain = 0
KAM1 080950Z 24007KT 07/M00 A299 RMK A01 T00671001  RH  062%=      5-min Rain = 0
KAM1 080951Z 24007KT 07/M00 A299 RMK A01 T00661001  RH  062%=      5-min Rain = 0
KAM1 080952Z 23007KT 07/00 A2991 RMK A01 T006600-0  RH  063%=      5-min Rain = 0
KAM1 080953Z 23008KT 07/00 A2991 RMK A01 T006600-0  RH  063%=      5-min Rain = 0
KAM1 080954Z 23008KT 07/00 A2991 RMK A01 T00660001  RH  063%=      5-min Rain = 0
KAM1 080955Z 23008KT 07/00 A2991 RMK A01 T00660001  RH  063%=      5-min Rain = 0
KAM1 080956Z 23008KT 07/00 A2991 RMK A01 T00660001  RH  063%=      5-min Rain = 0
KAM1 080957Z 24008KT 07/00 A2991 RMK A01 T00670002  RH  063%=      5-min Rain = 0
KAM1 080958Z 24008KT 07/00 A299 RMK A01 T00680002  RH  063%=      5-min Rain = 0
KAM1 080959Z 24008KT 07/00 A299 RMK A01 T00690002  RH  062%=      5-min Rain = 0
KAM1 081000Z 24008KT 07/00 A299 RMK A01 T00690002  RH  062%=      5-min Rain = 0
KAM1 081001Z 24007KT 07/00 A299 RMK A01 T00700002  RH  062%=      5-min Rain = 0
KAM1 081002Z 25007KT 07/00 A299 RMK A01 T00700002  RH  062%=      5-min Rain = 0
KAM1 081003Z 25007KT 07/00 A299 RMK A01 T00700002  RH  062%=      5-min Rain = 0
KAM1 081004Z 25007KT 07/00 A299 RMK A01 T00700001  RH  062%=      5-min Rain = 0
KAM1 081005Z 24007KT 07/00 A299 RMK A01 T00700001  RH  062%=      5-min Rain = 0
KAM1 081006Z 24006KT 07/00 A2989 RMK A01 T00700001  RH  061%=      5-min Rain = 0
KAM1 081007Z 24006KT 07/00 A2989 RMK A01 T00700001  RH  062%=      5-min Rain = 0
KAM1 081008Z 24007KT 07/00 A2989 RMK A01 T00690001  RH  062%=      5-min Rain = 0
KAM1 081009Z 24006KT 07/00 A2989 RMK A01 T00690001  RH  062%=      5-min Rain = 0
KAM1 081010Z 25006KT 07/00 A2989 RMK A01 T00680001  RH  062%=      5-min Rain = 0
KAM1 081011Z 24006KT 07/00 A2989 RMK A01 T00680001  RH  062%=      5-min Rain = 0
KAM1 081012Z 25006KT 07/00 A2989 RMK A01 T00680001  RH  062%=      5-min Rain = 0
KAM1 081013Z 25006KT 07/00 A2989 RMK A01 T00680001  RH  062%=      5-min Rain = 0
KAM1 081014Z 25006KT 07/00 A2989 RMK A01 T00680001  RH  062%=      5-min Rain = 0
KAM1 081015Z 25006KT 07/00 A2989 RMK A01 T00690001  RH  062%=      5-min Rain = 0
KAM1 081016Z 25006KT 07/00 A2989 RMK A01 T00690001  RH  062%=      5-min Rain = 0
KAM1 081017Z 25006KT 07/00 A2989 RMK A01 T00700002  RH  062%=      5-min Rain = 0
KAM1 081018Z 25006KT 07/00 A2989 RMK A01 T00700002  RH  062%=      5-min Rain = 0
KAM1 081019Z 25006KT 07/00 A2989 RMK A01 T00700002  RH  062%=      5-min Rain = 0
KAM1 081020Z 25006KT 07/00 A2989 RMK A01 T00700002  RH  062%=      5-min Rain = 0
KAM1 081021Z 24007KT 07/00 A2989 RMK A01 T00700003  RH  062%=      5-min Rain = 0
KAM1 081022Z 24008KT 07/00 A2989 RMK A01 T00710004  RH  062%=      5-min Rain = 0
KAM1 081023Z 24008KT 07/01 A2989 RMK A01 T00730005  RH  062%=      5-min Rain = 0
KAM1 081024Z 24009KT 07/01 A2989 RMK A01 T00740006  RH  062%=      5-min Rain = 0
KAM1 081025Z 24009KT 08/01 A2989 RMK A01 T00750006  RH  062%=      5-min Rain = 0
KAM1 081026Z 25007KT 08/01 A2989 RMK A01 T00760006  RH  061%=      5-min Rain = 0
KAM1 081027Z 27005KT 08/01 A2989 RMK A01 T00760006  RH  061%=      5-min Rain = 0
KAM1 081028Z 31004KT 08/01 A2989 RMK A01 T00760006  RH  061%=      5-min Rain = 0
KAM1 081029Z 33004KT 07/01 A2988 RMK A01 T00740005  RH  062%=      5-min Rain = 0
KAM1 081030Z 30004KT 07/00 A2988 RMK A01 T00710004  RH  062%=      5-min Rain = 0
KAM1 081031Z 28004KT 07/00 A2988 RMK A01 T00690004  RH  063%=      5-min Rain = 0
KAM1 081032Z 28004KT 07/00 A2988 RMK A01 T00680004  RH  064%=      5-min Rain = 0
KAM1 081033Z 28004KT 07/01 A2988 RMK A01 T00670005  RH  064%=      5-min Rain = 0
KAM1 081034Z 28004KT 07/01 A2988 RMK A01 T00670005  RH  065%=      5-min Rain = 0
KAM1 081035Z 27005KT 07/01 A2988 RMK A01 T00670006  RH  065%=      5-min Rain = 0
KAM1 081036Z 27005KT 07/01 A2988 RMK A01 T00670006  RH  065%=      5-min Rain = 0
KAM1 081037Z 26006KT 07/01 A2988 RMK A01 T00670006  RH  065%=      5-min Rain = 0
KAM1 081038Z 26006KT 07/01 A2988 RMK A01 T00670006  RH  065%=      5-min Rain = 0
KAM1 081039Z 26007KT 07/01 A2988 RMK A01 T00670006  RH  065%=      5-min Rain = 0
KAM1 081040Z 26007KT 07/01 A2988 RMK A01 T00670006  RH  065%=      5-min Rain = 0
KAM1 081041Z 27007KT 07/01 A2988 RMK A01 T00670007  RH  065%=      5-min Rain = 0
KAM1 081042Z 27007KT 07/01 A2988 RMK A01 T00660007  RH  066%=      5-min Rain = 0
KAM1 081043Z 27007KT 07/01 A2988 RMK A01 T00670007  RH  066%=      5-min Rain = 0
KAM1 081044Z 27006KT 07/01 A2988 RMK A01 T00670007  RH  066%=      5-min Rain = 0
KAM1 081045Z 26006KT 07/01 A2988 RMK A01 T00670007  RH  066%=      5-min Rain = 0
KAM1 081046Z 26007KT 07/01 A2988 RMK A01 T00670008  RH  066%=      5-min Rain = 0
KAM1 081047Z 26007KT 07/01 A2988 RMK A01 T00670008  RH  066%=      5-min Rain = 0
KAM1 081048Z 26008KT 07/01 A2988 RMK A01 T00680008  RH  066%=      5-min Rain = 0
KAM1 081049Z 26008KT 07/01 A2988 RMK A01 T00680008  RH  065%=      5-min Rain = 0
KAM1 081050Z 26008KT 07/01 A2988 RMK A01 T00690008  RH  065%=      5-min Rain = 0
KAM1 081051Z 26008KT 07/01 A2988 RMK A01 T00690008  RH  065%=      5-min Rain = 0
KAM1 081052Z 26007KT 07/01 A2988 RMK A01 T00690008  RH  065%=      5-min Rain = 0
KAM1 081053Z 26007KT 07/01 A2988 RMK A01 T00700008  RH  065%=      5-min Rain = 0
KAM1 081054Z 26008KT 07/01 A2988 RMK A01 T00700008  RH  065%=      5-min Rain = 0
KAM1 081055Z 26008KT 07/01 A2988 RMK A01 T00700008  RH  065%=      5-min Rain = 0
KAM1 081056Z 25009KT 07/01 A2989 RMK A01 T00700008  RH  065%=      5-min Rain = 0
KAM1 081057Z 25009KT 07/01 A2989 RMK A01 T00690008  RH  065%=      5-min Rain = 0
KAM1 081058Z 25010KT 07/01 A2989 RMK A01 T00690009  RH  065%=      5-min Rain = 0
KAM1 081059Z 25010KT 07/01 A2989 RMK A01 T00690009  RH  066%=      5-min Rain = 0
KAM1 081100Z 25010KT 07/01 A2989 RMK A01 T00690009  RH  066%=      5-min Rain = 0
KAM1 081101Z 24010KT 07/01 A2989 RMK A01 T00690009  RH  066%=      5-min Rain = 0
KAM1 081102Z 24009KT 07/01 A2989 RMK A01 T00690010  RH  066%=      5-min Rain = 0
KAM1 081103Z 25009KT 07/01 A2989 RMK A01 T00700010  RH  066%=      5-min Rain = 0
KAM1 081104Z 25008KT 07/01 A2989 RMK A01 T00700010  RH  066%=      5-min Rain = 0
KAM1 081105Z 25007KT 07/01 A2989 RMK A01 T00700010  RH  066%=      5-min Rain = 0
KAM1 081106Z 25008KT 07/01 A2988 RMK A01 T00700010  RH  066%=      5-min Rain = 0
KAM1 081107Z 25008KT 07/01 A2988 RMK A01 T00700009  RH  065%=      5-min Rain = 0
KAM1 081108Z 25008KT 07/01 A2988 RMK A01 T00700010  RH  065%=      5-min Rain = 0
KAM1 081109Z 25008KT 07/01 A2988 RMK A01 T00700009  RH  065%=      5-min Rain = 0
KAM1 081110Z 25008KT 07/01 A2988 RMK A01 T00700009  RH  065%=      5-min Rain = 0
KAM1 081111Z 25009KT 07/01 A2988 RMK A01 T00700009  RH  065%=      5-min Rain = 0
KAM1 081112Z 25009KT 07/01 A2988 RMK A01 T00700010  RH  065%=      5-min Rain = 0
KAM1 081113Z 25009KT 07/01 A2988 RMK A01 T00700009  RH  065%=      5-min Rain = 0
KAM1 081114Z 25009KT 07/01 A2988 RMK A01 T00700010  RH  065%=      5-min Rain = 0
KAM1 081115Z 25009KT 07/01 A2988 RMK A01 T00700009  RH  065%=      5-min Rain = 0
KAM1 081116Z 25009KT 07/01 A2988 RMK A01 T00700009  RH  065%=      5-min Rain = 0
KAM1 081117Z 25009KT 07/01 A2988 RMK A01 T00700009  RH  065%=      5-min Rain = 0
KAM1 081118Z 25009KT 07/01 A2988 RMK A01 T00700009  RH  065%=      5-min Rain = 0
KAM1 081119Z 25009KT 07/01 A2988 RMK A01 T00700009  RH  065%=      5-min Rain = 0
KAM1 081120Z 24009KT 07/01 A2987 RMK A01 T00700009  RH  065%=      5-min Rain = 0
KAM1 081121Z 25009KT 07/01 A2987 RMK A01 T00700009  RH  065%=      5-min Rain = 0
KAM1 081122Z 25009KT 07/01 A2987 RMK A01 T00710009  RH  065%=      5-min Rain = 0
KAM1 081123Z 25009KT 07/01 A2987 RMK A01 T00710010  RH  065%=      5-min Rain = 0
KAM1 081124Z 25008KT 07/01 A2987 RMK A01 T00720009  RH  064%=      5-min Rain = 0
KAM1 081125Z 25008KT 07/01 A2987 RMK A01 T00720009  RH  064%=      5-min Rain = 0
KAM1 081126Z 25008KT 07/01 A2987 RMK A01 T00730010  RH  064%=      5-min Rain = 0
KAM1 081127Z 25009KT 07/01 A2987 RMK A01 T00730009  RH  064%=      5-min Rain = 0
KAM1 081128Z 25009KT 07/01 A2987 RMK A01 T00730009  RH  064%=      5-min Rain = 0
KAM1 081129Z 25009KT 07/01 A2987 RMK A01 T00730009  RH  064%=      5-min Rain = 0
KAM1 081130Z 25009KT 07/01 A2987 RMK A01 T00730009  RH  064%=      5-min Rain = 0
KAM1 081131Z 26008KT 07/01 A2987 RMK A01 T00740009  RH  064%=      5-min Rain = 0
KAM1 081132Z 26008KT 07/01 A2987 RMK A01 T00740009  RH  063%=      5-min Rain = 0
KAM1 081133Z 25007KT 07/01 A2987 RMK A01 T00740009  RH  063%=      5-min Rain = 0
KAM1 081134Z 25008KT 07/01 A2987 RMK A01 T00740009  RH  063%=      5-min Rain = 0
KAM1 081135Z 25007KT 07/01 A2987 RMK A01 T00740009  RH  063%=      5-min Rain = 0
KAM1 081136Z 25008KT 07/01 A2988 RMK A01 T00740009  RH  063%=      5-min Rain = 0
KAM1 081137Z 25008KT 07/01 A2988 RMK A01 T00740010  RH  063%=      5-min Rain = 0
KAM1 081138Z 25008KT 07/01 A2988 RMK A01 T00740009  RH  063%=      5-min Rain = 0
KAM1 081139Z 25008KT 07/01 A2988 RMK A01 T00740009  RH  063%=      5-min Rain = 0
KAM1 081140Z 25007KT 07/01 A2988 RMK A01 T00740009  RH  063%=      5-min Rain = 0
KAM1 081141Z 25008KT 07/01 A2988 RMK A01 T00740009  RH  063%=      5-min Rain = 0
KAM1 081142Z 25008KT 08/01 A2988 RMK A01 T00750009  RH  063%=      5-min Rain = 0
KAM1 081143Z 25008KT 08/01 A2988 RMK A01 T00760009  RH  063%=      5-min Rain = 0
KAM1 081144Z 25008KT 08/01 A2989 RMK A01 T00760009  RH  063%=      5-min Rain = 0
KAM1 081145Z 24008KT 08/01 A2989 RMK A01 T00760009  RH  063%=      5-min Rain = 0
KAM1 081146Z 24009KT 08/01 A2989 RMK A01 T00760009  RH  062%=      5-min Rain = 0
KAM1 081147Z 25009KT 08/01 A2989 RMK A01 T00770009  RH  062%=      5-min Rain = 0
KAM1 081148Z 25010KT 08/01 A2989 RMK A01 T00770009  RH  062%=      5-min Rain = 0
KAM1 081149Z 25009KT 08/01 A2989 RMK A01 T00790010  RH  062%=      5-min Rain = 0
KAM1 081150Z 25009KT 08/01 A2989 RMK A01 T00800010  RH  061%=      5-min Rain = 0
KAM1 081151Z 25009KT 08/01 A2989 RMK A01 T00800009  RH  061%=      5-min Rain = 0
KAM1 081152Z 24009KT 08/01 A2989 RMK A01 T00810009  RH  060%=      5-min Rain = 0
KAM1 081153Z 24009KT 08/01 A2989 RMK A01 T00820009  RH  060%=      5-min Rain = 0
KAM1 081154Z 25009KT 08/01 A2989 RMK A01 T00820009  RH  060%=      5-min Rain = 0
KAM1 081155Z 25009KT 08/01 A2989 RMK A01 T00830009  RH  060%=      5-min Rain = 0
KAM1 081156Z 25009KT 08/01 A2989 RMK A01 T00840009  RH  059%=      5-min Rain = 0
KAM1 081157Z 25009KT 08/01 A2989 RMK A01 T00840009  RH  059%=      5-min Rain = 0
KAM1 081158Z 25009KT 08/01 A2989 RMK A01 T00840008  RH  059%=      5-min Rain = 0
KAM1 081159Z 25009KT 08/01 A2989 RMK A01 T00840009  RH  059%=      5-min Rain = 0
KAM1 081200Z 24009KT 08/01 A2989 RMK A01 T00840009  RH  059%=      5-min Rain = 0
KAM1 081201Z 24009KT 08/01 A2989 RMK A01 T00830009  RH  059%=      5-min Rain = 0
KAM1 081202Z 25009KT 08/01 A2989 RMK A01 T00830009  RH  059%=      5-min Rain = 0
KAM1 081203Z 25008KT 08/01 A2989 RMK A01 T00830008  RH  059%=      5-min Rain = 0
KAM1 081204Z 26008KT 08/01 A2989 RMK A01 T00840008  RH  059%=      5-min Rain = 0
KAM1 081205Z 25009KT 08/01 A2989 RMK A01 T00830008  RH  059%=      5-min Rain = 0
KAM1 081206Z 25008KT 08/01 A2989 RMK A01 T00830009  RH  059%=      5-min Rain = 0
KAM1 081207Z 25008KT 08/01 A2989 RMK A01 T00830009  RH  059%=      5-min Rain = 0
KAM1 081208Z 25008KT 08/01 A2989 RMK A01 T00830009  RH  060%=      5-min Rain = 0
KAM1 081209Z 25007KT 08/01 A2989 RMK A01 T00820009  RH  060%=      5-min Rain = 0
KAM1 081210Z 25007KT 08/01 A2989 RMK A01 T00820009  RH  060%=      5-min Rain = 0
KAM1 081211Z 25007KT 08/01 A2989 RMK A01 T00810009  RH  060%=      5-min Rain = 0
KAM1 081212Z 26007KT 08/01 A2989 RMK A01 T00810009  RH  061%=      5-min Rain = 0
KAM1 081213Z 25007KT 08/01 A2989 RMK A01 T00800009  RH  061%=      5-min Rain = 0
KAM1 081214Z 25007KT 08/01 A2989 RMK A01 T00800009  RH  061%=      5-min Rain = 0
KAM1 081215Z 25006KT 08/01 A2989 RMK A01 T00800009  RH  061%=      5-min Rain = 0
KAM1 081216Z 24006KT 08/01 A2989 RMK A01 T00790009  RH  061%=      5-min Rain = 0
KAM1 081217Z 25006KT 08/01 A2989 RMK A01 T00780009  RH  062%=      5-min Rain = 0
KAM1 081218Z 25006KT 08/01 A2989 RMK A01 T00780009  RH  062%=      5-min Rain = 0
KAM1 081219Z 24006KT 08/01 A2989 RMK A01 T00780009  RH  062%=      5-min Rain = 0
KAM1 081220Z 24006KT 08/01 A2989 RMK A01 T00780009  RH  062%=      5-min Rain = 0
KAM1 081221Z 25006KT 08/01 A2989 RMK A01 T00770009  RH  062%=      5-min Rain = 0
KAM1 081222Z 25006KT 08/01 A2989 RMK A01 T00770009  RH  062%=      5-min Rain = 0
KAM1 081223Z 25005KT 08/01 A2989 RMK A01 T00770009  RH  062%=      5-min Rain = 0
KAM1 081224Z 25005KT 08/01 A2988 RMK A01 T00770009  RH  062%=      5-min Rain = 0
KAM1 081225Z 26006KT 08/01 A2988 RMK A01 T00770009  RH  062%=      5-min Rain = 0
KAM1 081226Z 26006KT 08/01 A2988 RMK A01 T00770009  RH  062%=      5-min Rain = 0
KAM1 081227Z 26006KT 08/01 A2988 RMK A01 T00770009  RH  062%=      5-min Rain = 0
KAM1 081228Z 26005KT 08/01 A2988 RMK A01 T00770009  RH  062%=      5-min Rain = 0
KAM1 081229Z 26005KT 08/01 A2988 RMK A01 T00770009  RH  062%=      5-min Rain = 0
KAM1 081230Z 25005KT 08/01 A2988 RMK A01 T00770009  RH  062%=      5-min Rain = 0
KAM1 081231Z 25006KT 08/01 A2988 RMK A01 T00770009  RH  062%=      5-min Rain = 0
KAM1 081232Z 25006KT 08/01 A2988 RMK A01 T00770009  RH  062%=      5-min Rain = 0
KAM1 081233Z 25005KT 08/01 A2988 RMK A01 T00770009  RH  062%=      5-min Rain = 0
KAM1 081234Z 25005KT 08/01 A2988 RMK A01 T00770010  RH  062%=      5-min Rain = 0
KAM1 081235Z 25006KT 08/01 A2988 RMK A01 T00770010  RH  062%=      5-min Rain = 0
KAM1 081236Z 25006KT 08/01 A2988 RMK A01 T00760010  RH  063%=      5-min Rain = 0
KAM1 081237Z 25006KT 08/01 A2988 RMK A01 T00760009  RH  063%=      5-min Rain = 0
KAM1 081238Z 25007KT 08/01 A2988 RMK A01 T00760009  RH  063%=      5-min Rain = 0
KAM1 081239Z 24006KT 08/01 A2988 RMK A01 T00760009  RH  063%=      5-min Rain = 0
KAM1 081240Z 25007KT 08/01 A2988 RMK A01 T00760010  RH  063%=      5-min Rain = 0
KAM1 081241Z 25006KT 08/01 A2988 RMK A01 T00770009  RH  062%=      5-min Rain = 0
KAM1 081242Z 25007KT 08/01 A2988 RMK A01 T00770009  RH  062%=      5-min Rain = 0
KAM1 081243Z 25007KT 08/01 A2988 RMK A01 T00770010  RH  062%=      5-min Rain = 0
KAM1 081244Z 25007KT 08/01 A2988 RMK A01 T00780010  RH  062%=      5-min Rain = 0
KAM1 081245Z 26006KT 08/01 A2988 RMK A01 T00790010  RH  062%=      5-min Rain = 0
KAM1 081246Z 26006KT 08/01 A2988 RMK A01 T00790009  RH  061%=      5-min Rain = 0
KAM1 081247Z 27005KT 08/01 A2988 RMK A01 T00800010  RH  061%=      5-min Rain = 0
KAM1 081248Z 27005KT 08/01 A2988 RMK A01 T00800010  RH  061%=      5-min Rain = 0
KAM1 081249Z 27005KT 08/01 A2988 RMK A01 T00790010  RH  062%=      5-min Rain = 0
KAM1 081250Z 27005KT 08/01 A2988 RMK A01 T00790010  RH  062%=      5-min Rain = 0
KAM1 081251Z 28004KT 08/01 A2988 RMK A01 T00780010  RH  062%=      5-min Rain = 0
KAM1 081252Z 28005KT 08/01 A2988 RMK A01 T00770010  RH  062%=      5-min Rain = 0
KAM1 081253Z 28005KT 08/01 A2988 RMK A01 T00770010  RH  062%=      5-min Rain = 0
KAM1 081254Z 28005KT 08/01 A2988 RMK A01 T00760010  RH  063%=      5-min Rain = 0
KAM1 081255Z 27005KT 08/01 A2988 RMK A01 T00760010  RH  063%=      5-min Rain = 0
KAM1 081256Z 27005KT 08/01 A2988 RMK A01 T00760010  RH  063%=      5-min Rain = 0
KAM1 081257Z 27005KT 08/01 A2988 RMK A01 T00760010  RH  063%=      5-min Rain = 0
KAM1 081258Z 27006KT 08/01 A2988 RMK A01 T00760010  RH  063%=      5-min Rain = 0
KAM1 081259Z 26006KT 08/01 A2988 RMK A01 T00770011  RH  063%=      5-min Rain = 0
KAM1 081300Z 26007KT 08/01 A2988 RMK A01 T00770011  RH  063%=      5-min Rain = 0
KAM1 081301Z 26006KT 08/01 A2988 RMK A01 T00780011  RH  062%=      5-min Rain = 0
KAM1 081302Z 26006KT 08/01 A2988 RMK A01 T00790010  RH  062%=      5-min Rain = 0
KAM1 081303Z 26005KT 08/01 A2988 RMK A01 T00800010  RH  061%=      5-min Rain = 0
KAM1 081304Z 26006KT 08/01 A2988 RMK A01 T00800010  RH  061%=      5-min Rain = 0
KAM1 081305Z 25006KT 08/01 A2988 RMK A01 T00810010  RH  061%=      5-min Rain = 0
KAM1 081306Z 25005KT 08/01 A2988 RMK A01 T00810010  RH  061%=      5-min Rain = 0
KAM1 081307Z 25006KT 08/01 A2988 RMK A01 T00810010  RH  061%=      5-min Rain = 0
KAM1 081308Z 25006KT 08/01 A2988 RMK A01 T00810010  RH  061%=      5-min Rain = 0
KAM1 081309Z 25006KT 08/01 A2988 RMK A01 T00800010  RH  061%=      5-min Rain = 0
KAM1 081310Z 25006KT 08/01 A2988 RMK A01 T00800010  RH  061%=      5-min Rain = 0
KAM1 081311Z 25006KT 08/01 A2988 RMK A01 T00800011  RH  061%=      5-min Rain = 0
KAM1 081312Z 25006KT 08/01 A2988 RMK A01 T00810010  RH  061%=      5-min Rain = 0
KAM1 081313Z 24006KT 08/01 A2988 RMK A01 T00810011  RH  061%=      5-min Rain = 0
KAM1 081314Z 25006KT 08/01 A2988 RMK A01 T00810010  RH  061%=      5-min Rain = 0
KAM1 081315Z 25007KT 08/01 A2988 RMK A01 T00820011  RH  061%=      5-min Rain = 0
KAM1 081316Z 25007KT 08/01 A2988 RMK A01 T00820011  RH  061%=      5-min Rain = 0
KAM1 081317Z 25007KT 08/01 A2988 RMK A01 T00830011  RH  061%=      5-min Rain = 0
KAM1 081318Z 25006KT 08/01 A2988 RMK A01 T00830011  RH  060%=      5-min Rain = 0
KAM1 081319Z 25005KT 08/01 A2988 RMK A01 T00840011  RH  060%=      5-min Rain = 0
KAM1 081320Z 25005KT 08/01 A2988 RMK A01 T00840011  RH  060%=      5-min Rain = 0
KAM1 081321Z 26005KT 09/01 A2988 RMK A01 T00850011  RH  060%=      5-min Rain = 0
KAM1 081322Z 26005KT 09/01 A2988 RMK A01 T00850010  RH  060%=      5-min Rain = 0
KAM1 081323Z 26005KT 09/01 A2988 RMK A01 T00850010  RH  059%=      5-min Rain = 0
KAM1 081324Z 26005KT 09/01 A2988 RMK A01 T00850010  RH  059%=      5-min Rain = 0
KAM1 081325Z 26006KT 09/01 A2988 RMK A01 T00850010  RH  059%=      5-min Rain = 0
KAM1 081326Z 26005KT 09/01 A2988 RMK A01 T00850010  RH  059%=      5-min Rain = 0
KAM1 081327Z 26006KT 09/01 A2988 RMK A01 T00860011  RH  059%=      5-min Rain = 0
KAM1 081328Z 26007KT 09/01 A2988 RMK A01 T00860011  RH  059%=      5-min Rain = 0
KAM1 081329Z 25007KT 09/01 A2988 RMK A01 T00860011  RH  059%=      5-min Rain = 0
KAM1 081330Z 26007KT 09/01 A2988 RMK A01 T00860011  RH  059%=      5-min Rain = 0
KAM1 081331Z 26007KT 09/01 A2988 RMK A01 T00860011  RH  059%=      5-min Rain = 0
KAM1 081332Z 26006KT 09/01 A2988 RMK A01 T00860011  RH  059%=      5-min Rain = 0
KAM1 081333Z 26007KT 09/01 A2988 RMK A01 T00860011  RH  059%=      5-min Rain = 0
KAM1 081334Z 26007KT 09/01 A2988 RMK A01 T00860011  RH  059%=      5-min Rain = 0
KAM1 081335Z 26007KT 09/01 A2988 RMK A01 T00870012  RH  059%=      5-min Rain = 0
KAM1 081336Z 25008KT 09/01 A2988 RMK A01 T00860011  RH  059%=      5-min Rain = 0
KAM1 081337Z 26008KT 09/01 A2988 RMK A01 T00870012  RH  059%=      5-min Rain = 0
KAM1 081338Z 25008KT 09/01 A2988 RMK A01 T00870011  RH  059%=      5-min Rain = 0
KAM1 081339Z 25008KT 09/01 A2988 RMK A01 T00870011  RH  059%=      5-min Rain = 0
KAM1 081340Z 25008KT 09/01 A2988 RMK A01 T00860011  RH  059%=      5-min Rain = 0
KAM1 081341Z 25008KT 09/01 A2987 RMK A01 T00860011  RH  060%=      5-min Rain = 0
KAM1 081342Z 25008KT 09/01 A2987 RMK A01 T00850011  RH  060%=      5-min Rain = 0
KAM1 081343Z 26007KT 08/01 A2987 RMK A01 T00840011  RH  060%=      5-min Rain = 0
KAM1 081344Z 26007KT 08/01 A2987 RMK A01 T00830011  RH  060%=      5-min Rain = 0
KAM1 081345Z 26007KT 08/01 A2987 RMK A01 T00820010  RH  061%=      5-min Rain = 0
KAM1 081346Z 26008KT 08/01 A2987 RMK A01 T00810010  RH  061%=      5-min Rain = 0
KAM1 081347Z 26007KT 08/01 A2987 RMK A01 T00810011  RH  061%=      5-min Rain = 0
KAM1 081348Z 26007KT 08/01 A2987 RMK A01 T00800011  RH  061%=      5-min Rain = 0
KAM1 081349Z 26007KT 08/01 A2987 RMK A01 T00800011  RH  062%=      5-min Rain = 0
KAM1 081350Z 26007KT 08/01 A2987 RMK A01 T00790011  RH  062%=      5-min Rain = 0
KAM1 081351Z 26006KT 08/01 A2987 RMK A01 T00790011  RH  062%=      5-min Rain = 0
KAM1 081352Z 26006KT 08/01 A2987 RMK A01 T00780011  RH  063%=      5-min Rain = 0
KAM1 081353Z 27007KT 08/01 A2987 RMK A01 T00780012  RH  063%=      5-min Rain = 0
KAM1 081354Z 26007KT 08/01 A2987 RMK A01 T00770012  RH  063%=      5-min Rain = 0
KAM1 081355Z 26007KT 08/01 A2987 RMK A01 T00780013  RH  063%=      5-min Rain = 0
KAM1 081356Z 26007KT 08/01 A2987 RMK A01 T00780013  RH  063%=      5-min Rain = 0
KAM1 081357Z 25008KT 08/01 A2987 RMK A01 T00790013  RH  063%=      5-min Rain = 0
KAM1 081358Z 26009KT 08/01 A2987 RMK A01 T00790014  RH  063%=      5-min Rain = 0
KAM1 081359Z 25010KT 08/01 A2987 RMK A01 T00800014  RH  063%=      5-min Rain = 0
KAM1 081400Z 25010KT 08/02 A2987 RMK A01 T00820015  RH  063%=      5-min Rain = 0
KAM1 081401Z 25010KT 08/02 A2987 RMK A01 T00840016  RH  062%=      5-min Rain = 0
KAM1 081402Z 25009KT 09/02 A2987 RMK A01 T00850016  RH  062%=      5-min Rain = 0
KAM1 081403Z 26010KT 09/02 A2987 RMK A01 T00860016  RH  061%=      5-min Rain = 0
KAM1 081404Z 26010KT 09/02 A2987 RMK A01 T00880016  RH  061%=      5-min Rain = 0
KAM1 081405Z 26009KT 09/02 A2987 RMK A01 T00890017  RH  060%=      5-min Rain = 0
KAM1 081406Z 25008KT 09/02 A2987 RMK A01 T00900017  RH  060%=      5-min Rain = 0
KAM1 081407Z 26009KT 09/02 A2987 RMK A01 T00910017  RH  060%=      5-min Rain = 0
KAM1 081408Z 26008KT 09/02 A2987 RMK A01 T00910017  RH  060%=      5-min Rain = 0
KAM1 081409Z 26009KT 09/02 A2987 RMK A01 T00920017  RH  059%=      5-min Rain = 0
KAM1 081410Z 25007KT 09/02 A2987 RMK A01 T00930017  RH  059%=      5-min Rain = 0
KAM1 081411Z 25008KT 09/02 A2987 RMK A01 T00940017  RH  059%=      5-min Rain = 0
KAM1 081412Z 26008KT 09/02 A2987 RMK A01 T00940017  RH  059%=      5-min Rain = 0
KAM1 081413Z 26008KT 10/02 A2987 RMK A01 T00950017  RH  058%=      5-min Rain = 0
KAM1 081414Z 26008KT 10/02 A2987 RMK A01 T00950017  RH  058%=      5-min Rain = 0
KAM1 081415Z 26007KT 10/02 A2987 RMK A01 T00960018  RH  058%=      5-min Rain = 0
KAM1 081416Z 26007KT 10/02 A2987 RMK A01 T00970018  RH  058%=      5-min Rain = 0
KAM1 081417Z 26008KT 10/02 A2987 RMK A01 T00970018  RH  058%=      5-min Rain = 0
KAM1 081418Z 25008KT 10/02 A2987 RMK A01 T00980018  RH  058%=      5-min Rain = 0
KAM1 081419Z 25008KT 10/02 A2987 RMK A01 T00980018  RH  058%=      5-min Rain = 0
KAM1 081420Z 25008KT 10/02 A2987 RMK A01 T00980018  RH  057%=      5-min Rain = 0
KAM1 081421Z 25007KT 10/02 A2987 RMK A01 T00990018  RH  057%=      5-min Rain = 0
KAM1 081422Z 25007KT 10/02 A2987 RMK A01 T00990018  RH  057%=      5-min Rain = 0
KAM1 081423Z 25008KT 10/02 A2987 RMK A01 T00990018  RH  057%=      5-min Rain = 0
KAM1 081424Z 25007KT 10/02 A2987 RMK A01 T00990019  RH  057%=      5-min Rain = 0
KAM1 081425Z 25008KT 10/02 A2987 RMK A01 T01000019  RH  057%=      5-min Rain = 0
KAM1 081426Z 25009KT 10/02 A2987 RMK A01 T01000019  RH  057%=      5-min Rain = 0
KAM1 081427Z 25007KT 10/02 A2987 RMK A01 T01000020  RH  057%=      5-min Rain = 0
KAM1 081428Z 25008KT 10/02 A2987 RMK A01 T01000020  RH  057%=      5-min Rain = 0
KAM1 081429Z 25008KT 10/02 A2987 RMK A01 T01010020  RH  057%=      5-min Rain = 0
KAM1 081430Z 25009KT 10/02 A2987 RMK A01 T01010020  RH  057%=      5-min Rain = 0
KAM1 081431Z 25009KT 10/02 A2987 RMK A01 T01010020  RH  057%=      5-min Rain = 0
KAM1 081432Z 25009KT 10/02 A2987 RMK A01 T01010020  RH  057%=      5-min Rain = 0
KAM1 081433Z 26008KT 10/02 A2987 RMK A01 T01010020  RH  057%=      5-min Rain = 0
KAM1 081434Z 26008KT 10/02 A2987 RMK A01 T01010020  RH  057%=      5-min Rain = 0
KAM1 081435Z 26008KT 10/02 A2987 RMK A01 T01010020  RH  057%=      5-min Rain = 0
KAM1 081436Z 26009KT 10/02 A2987 RMK A01 T01020020  RH  057%=      5-min Rain = 0
KAM1 081437Z 25008KT 10/02 A2987 RMK A01 T01020020  RH  057%=      5-min Rain = 0
KAM1 081438Z 25008KT 10/02 A2986 RMK A01 T01020021  RH  057%=      5-min Rain = 0
KAM1 081439Z 25008KT 10/02 A2986 RMK A01 T01020021  RH  057%=      5-min Rain = 0
KAM1 081440Z 25008KT 10/02 A2986 RMK A01 T01020021  RH  057%=      5-min Rain = 0
KAM1 081441Z 25010KT 10/02 A2986 RMK A01 T01030021  RH  057%=      5-min Rain = 0
KAM1 081442Z 25008KT 10/02 A2986 RMK A01 T01030021  RH  057%=      5-min Rain = 0
KAM1 081443Z 25009KT 10/02 A2986 RMK A01 T01040022  RH  057%=      5-min Rain = 0
KAM1 081444Z 26010KT 10/02 A2987 RMK A01 T01040022  RH  057%=      5-min Rain = 0
KAM1 081445Z 26009KT 11/02 A2987 RMK A01 T01050022  RH  056%=      5-min Rain = 0
KAM1 081446Z 26009KT 11/02 A2987 RMK A01 T01050022  RH  056%=      5-min Rain = 0
KAM1 081447Z 25008KT 11/02 A2987 RMK A01 T01060023  RH  057%=      5-min Rain = 0
KAM1 081448Z 25008KT 11/02 A2987 RMK A01 T01060023  RH  057%=      5-min Rain = 0
KAM1 081449Z 26008KT 11/02 A2987 RMK A01 T01070024  RH  056%=      5-min Rain = 0
KAM1 081450Z 26009KT 11/02 A2987 RMK A01 T01070024  RH  056%=      5-min Rain = 0
KAM1 081451Z 26009KT 11/02 A2987 RMK A01 T01070024  RH  056%=      5-min Rain = 0
KAM1 081452Z 26008KT 11/02 A2987 RMK A01 T01080024  RH  056%=      5-min Rain = 0
KAM1 081453Z 26007KT 11/03 A2987 RMK A01 T01080025  RH  056%=      5-min Rain = 0
KAM1 081454Z 26008KT 11/03 A2987 RMK A01 T01090026  RH  056%=      5-min Rain = 0
KAM1 081455Z 26008KT 11/03 A2986 RMK A01 T01100026  RH  056%=      5-min Rain = 0
KAM1 081456Z 26008KT 11/03 A2986 RMK A01 T01100026  RH  056%=      5-min Rain = 0
KAM1 081457Z 26007KT 11/03 A2986 RMK A01 T01110026  RH  056%=      5-min Rain = 0
KAM1 081458Z 26009KT 11/03 A2986 RMK A01 T01110026  RH  056%=      5-min Rain = 0
KAM1 081459Z 26008KT 11/03 A2986 RMK A01 T01120026  RH  055%=      5-min Rain = 0
KAM1 081500Z 26009G14KT 11/02 A2986 RMK A01 T01130024  RH  055%=      5-min Rain = 0
KAM1 081501Z 26008KT 11/03 A2986 RMK A01 T01130025  RH  055%=      5-min Rain = 0
KAM1 081502Z 26010KT 11/03 A2986 RMK A01 T01130025  RH  054%=      5-min Rain = 0
KAM1 081503Z 26009KT 11/02 A2986 RMK A01 T01130024  RH  054%=      5-min Rain = 0
KAM1 081504Z 26009KT 11/02 A2986 RMK A01 T01130024  RH  054%=      5-min Rain = 0
KAM1 081505Z 26009KT 11/03 A2986 RMK A01 T01140025  RH  054%=      5-min Rain = 0
KAM1 081506Z 26010KT 11/03 A2986 RMK A01 T01140026  RH  055%=      5-min Rain = 0
KAM1 081507Z 26009KT 11/03 A2986 RMK A01 T01140025  RH  054%=      5-min Rain = 0
KAM1 081508Z 26010KT 11/03 A2986 RMK A01 T01140025  RH  054%=      5-min Rain = 0
KAM1 081509Z 26009KT 12/03 A2986 RMK A01 T01150025  RH  054%=      5-min Rain = 0
KAM1 081510Z 26009KT 12/03 A2986 RMK A01 T01150025  RH  054%=      5-min Rain = 0
KAM1 081511Z 26008KT 12/03 A2986 RMK A01 T01160026  RH  054%=      5-min Rain = 0
KAM1 081512Z 26009KT 12/03 A2986 RMK A01 T01160026  RH  054%=      5-min Rain = 0
KAM1 081513Z 26008KT 12/03 A2986 RMK A01 T01160027  RH  054%=      5-min Rain = 0
KAM1 081514Z 27008KT 12/03 A2986 RMK A01 T01160027  RH  054%=      5-min Rain = 0
KAM1 081515Z 27007KT 12/03 A2986 RMK A01 T01150026  RH  054%=      5-min Rain = 0
KAM1 081516Z 27007KT 12/03 A2986 RMK A01 T01150027  RH  055%=      5-min Rain = 0
KAM1 081517Z 27007KT 12/03 A2986 RMK A01 T01150027  RH  055%=      5-min Rain = 0
KAM1 081518Z 28007KT 11/03 A2986 RMK A01 T01140027  RH  055%=      5-min Rain = 0
KAM1 081519Z 27007KT 11/03 A2986 RMK A01 T01140028  RH  055%=      5-min Rain = 0
KAM1 081520Z 27007KT 11/03 A2986 RMK A01 T01140027  RH  055%=      5-min Rain = 0
KAM1 081521Z 27007KT 11/03 A2986 RMK A01 T01140027  RH  055%=      5-min Rain = 0
KAM1 081522Z 28007KT 11/03 A2986 RMK A01 T01140027  RH  055%=      5-min Rain = 0
KAM1 081523Z 27007KT 11/03 A2986 RMK A01 T01140027  RH  055%=      5-min Rain = 0
KAM1 081524Z 27008KT 11/03 A2986 RMK A01 T01140027  RH  055%=      5-min Rain = 0
KAM1 081525Z 27008KT 11/03 A2986 RMK A01 T01140026  RH  055%=      5-min Rain = 0
KAM1 081526Z 28007KT 11/03 A2986 RMK A01 T01140026  RH  054%=      5-min Rain = 0
KAM1 081527Z 28008KT 11/03 A2986 RMK A01 T01140025  RH  054%=      5-min Rain = 0
KAM1 081528Z 27007KT 12/03 A2986 RMK A01 T01150025  RH  054%=      5-min Rain = 0
KAM1 081529Z 28006KT 12/03 A2986 RMK A01 T01150026  RH  054%=      5-min Rain = 0
KAM1 081530Z 27006KT 12/03 A2986 RMK A01 T01150026  RH  054%=      5-min Rain = 0
KAM1 081531Z 27006KT 12/03 A2986 RMK A01 T01150026  RH  054%=      5-min Rain = 0
KAM1 081532Z 27008KT 12/03 A2986 RMK A01 T01150026  RH  054%=      5-min Rain = 0
KAM1 081533Z 27007KT 12/03 A2986 RMK A01 T01150026  RH  054%=      5-min Rain = 0
KAM1 081534Z 27007KT 12/03 A2986 RMK A01 T01160027  RH  054%=      5-min Rain = 0
KAM1 081535Z 27007KT 12/03 A2986 RMK A01 T01160027  RH  054%=      5-min Rain = 0
KAM1 081536Z 27008KT 12/03 A2986 RMK A01 T01170028  RH  054%=      5-min Rain = 0
KAM1 081537Z 26007KT 12/03 A2986 RMK A01 T01190029  RH  054%=      5-min Rain = 0
KAM1 081538Z 27007KT 12/03 A2986 RMK A01 T01200030  RH  054%=      5-min Rain = 0
KAM1 081539Z 26008KT 12/03 A2986 RMK A01 T01210029  RH  053%=      5-min Rain = 0
KAM1 081540Z 27008KT 12/03 A2986 RMK A01 T01210030  RH  053%=      5-min Rain = 0
KAM1 081541Z 27009KT 12/03 A2986 RMK A01 T01210030  RH  054%=      5-min Rain = 0
KAM1 081542Z 27010KT 12/03 A2986 RMK A01 T01210030  RH  054%=      5-min Rain = 0
KAM1 081543Z 27009KT 12/03 A2987 RMK A01 T01210030  RH  054%=      5-min Rain = 0
KAM1 081544Z 28009KT 12/03 A2987 RMK A01 T01220031  RH  054%=      5-min Rain = 0
KAM1 081545Z 28010KT 12/03 A2987 RMK A01 T01230031  RH  053%=      5-min Rain = 0
KAM1 081546Z 27010KT 12/03 A2987 RMK A01 T01240032  RH  053%=      5-min Rain = 0
KAM1 081547Z 27010KT 13/03 A2986 RMK A01 T01250032  RH  053%=      5-min Rain = 0
KAM1 081548Z 27010KT 13/03 A2986 RMK A01 T01270032  RH  052%=      5-min Rain = 0
KAM1 081549Z 27010KT 13/03 A2986 RMK A01 T01290033  RH  052%=      5-min Rain = 0
KAM1 081550Z 27010KT 13/03 A2986 RMK A01 T01320034  RH  051%=      5-min Rain = 0
KAM1 081551Z 27010KT 14/04 A2986 RMK A01 T01350035  RH  051%=      5-min Rain = 0
KAM1 081552Z 27012G18KT 14/04 A2986 RMK A01 T01380035  RH  050%=      5-min Rain = 0
KAM1 081553Z 27014KT 14/03 A2986 RMK A01 T01390033  RH  049%=      5-min Rain = 0
KAM1 081554Z 27013KT 14/03 A2986 RMK A01 T01400032  RH  048%=      5-min Rain = 0
KAM1 081555Z 27011KT 14/03 A2986 RMK A01 T01400032  RH  048%=      5-min Rain = 0
KAM1 081556Z 26012KT 14/03 A2986 RMK A01 T01410034  RH  049%=      5-min Rain = 0
KAM1 081557Z 26012KT 14/04 A2986 RMK A01 T01430035  RH  048%=      5-min Rain = 0
KAM1 081558Z 26014KT 15/04 A2986 RMK A01 T01450035  RH  048%=      5-min Rain = 0
KAM1 081559Z 26014KT 15/03 A2986 RMK A01 T01450032  RH  047%=      5-min Rain = 0
KAM1 081600Z 26014KT 15/03 A2986 RMK A01 T01450033  RH  047%=      5-min Rain = 0
KAM1 081601Z 26014KT 14/03 A2986 RMK A01 T01440033  RH  047%=      5-min Rain = 0
KAM1 081602Z 26015G20KT 14/03 A2986 RMK A01 T01430032  RH  047%=      5-min Rain = 0
KAM1 081603Z 26015KT 14/03 A2986 RMK A01 T01410031  RH  047%=      5-min Rain = 0
KAM1 081604Z 26017KT 14/03 A2986 RMK A01 T01400030  RH  047%=      5-min Rain = 0
KAM1 081605Z 26015KT 14/03 A2986 RMK A01 T01380029  RH  048%=      5-min Rain = 0
KAM1 081606Z 26013KT 14/03 A2985 RMK A01 T01370030  RH  048%=      5-min Rain = 0
KAM1 081607Z 26012KT 14/03 A2985 RMK A01 T01360030  RH  049%=      5-min Rain = 0
KAM1 081608Z 26012KT 14/03 A2985 RMK A01 T01350030  RH  049%=      5-min Rain = 0
KAM1 081609Z 26011KT 14/03 A2986 RMK A01 T01350031  RH  049%=      5-min Rain = 0
KAM1 081610Z 27012KT 14/03 A2986 RMK A01 T01350031  RH  049%=      5-min Rain = 0
KAM1 081611Z 26014KT 14/03 A2985 RMK A01 T01370033  RH  049%=      5-min Rain = 0
KAM1 081612Z 27011KT 14/03 A2985 RMK A01 T01390034  RH  049%=      5-min Rain = 0
KAM1 081613Z 26014KT 14/04 A2985 RMK A01 T01420035  RH  048%=      5-min Rain = 0
KAM1 081614Z 26014KT 14/04 A2985 RMK A01 T01440035  RH  048%=      5-min Rain = 0
KAM1 081615Z 26013KT 15/04 A2985 RMK A01 T01460035  RH  047%=      5-min Rain = 0
KAM1 081616Z 26014KT 15/04 A2985 RMK A01 T01480037  RH  047%=      5-min Rain = 0
KAM1 081617Z 26013G18KT 15/04 A2985 RMK A01 T01490035  RH  046%=      5-min Rain = 0
KAM1 081618Z 26016KT 15/04 A2985 RMK A01 T01500035  RH  046%=      5-min Rain = 0
KAM1 081619Z 27016KT 15/04 A2985 RMK A01 T01500035  RH  046%=      5-min Rain = 0
KAM1 081620Z 26016KT 15/03 A2985 RMK A01 T01500034  RH  046%=      5-min Rain = 0
KAM1 081621Z 26017KT 15/04 A2985 RMK A01 T01510036  RH  046%=      5-min Rain = 0
KAM1 081622Z 27017KT 15/03 A2985 RMK A01 T01510033  RH  045%=      5-min Rain = 0
KAM1 081623Z 27017KT 15/03 A2985 RMK A01 T01510033  RH  045%=      5-min Rain = 0
KAM1 081624Z 26017KT 15/03 A2985 RMK A01 T01510033  RH  045%=      5-min Rain = 0
KAM1 081625Z 27016KT 15/03 A2985 RMK A01 T01510034  RH  045%=      5-min Rain = 0
KAM1 081626Z 26013KT 15/03 A2986 RMK A01 T01520034  RH  045%=      5-min Rain = 0
KAM1 081627Z 26016KT 15/04 A2985 RMK A01 T01540036  RH  045%=      5-min Rain = 0
KAM1 081628Z 26017KT 15/03 A2985 RMK A01 T01540034  RH  045%=      5-min Rain = 0
KAM1 081629Z 26016KT 15/03 A2985 RMK A01 T01540033  RH  044%=      5-min Rain = 0
KAM1 081630Z 26017KT 15/03 A2985 RMK A01 T01520032  RH  045%=      5-min Rain = 0
KAM1 081631Z 27014KT 15/03 A2985 RMK A01 T01510032  RH  045%=      5-min Rain = 0
KAM1 081632Z 26013KT 15/03 A2985 RMK A01 T01510032  RH  045%=      5-min Rain = 0
KAM1 081633Z 26014KT 15/04 A2985 RMK A01 T01540035  RH  045%=      5-min Rain = 0
KAM1 081634Z 26015KT 16/04 A2985 RMK A01 T01550036  RH  045%=      5-min Rain = 0
KAM1 081635Z 26015KT 16/04 A2985 RMK A01 T01550036  RH  045%=      5-min Rain = 0
KAM1 081636Z 26012KT 16/04 A2985 RMK A01 T01560036  RH  045%=      5-min Rain = 0
KAM1 081637Z 26016KT 16/04 A2985 RMK A01 T01570037  RH  045%=      5-min Rain = 0
KAM1 081638Z 25016KT 16/03 A2985 RMK A01 T01560034  RH  044%=      5-min Rain = 0
KAM1 081639Z 27015KT 15/03 A2985 RMK A01 T01530034  RH  045%=      5-min Rain = 0
KAM1 081640Z 26013KT 15/04 A2985 RMK A01 T01530036  RH  045%=      5-min Rain = 0
KAM1 081641Z 27013KT 15/04 A2985 RMK A01 T01540037  RH  045%=      5-min Rain = 0
KAM1 081642Z 26010KT 15/04 A2985 RMK A01 T01540036  RH  045%=      5-min Rain = 0
KAM1 081643Z 26014KT 16/04 A2984 RMK A01 T01550038  RH  046%=      5-min Rain = 0
KAM1 081644Z 26015KT 16/04 A2984 RMK A01 T01550037  RH  045%=      5-min Rain = 0
KAM1 081645Z 26017KT 16/04 A2984 RMK A01 T01550037  RH  045%=      5-min Rain = 0
KAM1 081646Z 26016KT 15/04 A2984 RMK A01 T01540035  RH  045%=      5-min Rain = 0
KAM1 081647Z 26013KT 15/04 A2984 RMK A01 T01540036  RH  045%=      5-min Rain = 0
KAM1 081648Z 26016KT 16/04 A2984 RMK A01 T01550037  RH  045%=      5-min Rain = 0
KAM1 081649Z 26016KT 16/04 A2984 RMK A01 T01550035  RH  045%=      5-min Rain = 0
KAM1 081650Z 26015KT 16/04 A2984 RMK A01 T01550035  RH  044%=      5-min Rain = 0
KAM1 081651Z 27013KT 16/04 A2984 RMK A01 T01560037  RH  045%=      5-min Rain = 0
KAM1 081652Z 25016KT 16/04 A2984 RMK A01 T01570037  RH  045%=      5-min Rain = 0
KAM1 081653Z 26017KT 16/04 A2984 RMK A01 T01570037  RH  045%=      5-min Rain = 0
KAM1 081654Z 26017KT 16/04 A2984 RMK A01 T01570036  RH  044%=      5-min Rain = 0
KAM1 081655Z 26018KT 16/03 A2984 RMK A01 T01550034  RH  044%=      5-min Rain = 0
KAM1 081656Z 26018KT 15/03 A2984 RMK A01 T01540033  RH  044%=      5-min Rain = 0
KAM1 081657Z 26018KT 15/03 A2984 RMK A01 T01530032  RH  044%=      5-min Rain = 0
KAM1 081658Z 27014KT 15/03 A2984 RMK A01 T01530034  RH  045%=      5-min Rain = 0
KAM1 081659Z 26013KT 15/04 A2984 RMK A01 T01540036  RH  045%=      5-min Rain = 0
KAM1 081700Z 26014KT 16/04 A2984 RMK A01 T01570039  RH  045%=      5-min Rain = 0
KAM1 081701Z 26015KT 16/04 A2984 RMK A01 T01590039  RH  045%=      5-min Rain = 0
KAM1 081702Z 26012KT 16/04 A2984 RMK A01 T01590039  RH  045%=      5-min Rain = 0
KAM1 081703Z 26014KT 16/04 A2984 RMK A01 T01600041  RH  045%=      5-min Rain = 0
KAM1 081704Z 26013KT 16/04 A2984 RMK A01 T01600040  RH  045%=      5-min Rain = 0
KAM1 081705Z 26017KT 16/04 A2984 RMK A01 T01600040  RH  045%=      5-min Rain = 0
KAM1 081706Z 26015KT 16/04 A2984 RMK A01 T01590038  RH  044%=      5-min Rain = 0
KAM1 081707Z 26015KT 16/04 A2984 RMK A01 T01600039  RH  044%=      5-min Rain = 0
KAM1 081708Z 26016KT 16/04 A2984 RMK A01 T01620039  RH  044%=      5-min Rain = 0
KAM1 081709Z 27015KT 16/04 A2984 RMK A01 T01610037  RH  044%=      5-min Rain = 0
KAM1 081710Z 26012KT 16/04 A2984 RMK A01 T01600039  RH  044%=      5-min Rain = 0
KAM1 081711Z 26017KT 16/04 A2984 RMK A01 T01620040  RH  044%=      5-min Rain = 0
KAM1 081712Z 27016KT 16/04 A2984 RMK A01 T01620037  RH  043%=      5-min Rain = 0
KAM1 081713Z 26015KT 16/04 A2984 RMK A01 T01620038  RH  044%=      5-min Rain = 0
KAM1 081714Z 27017KT 16/04 A2984 RMK A01 T01620038  RH  044%=      5-min Rain = 0
KAM1 081715Z 27016KT 16/04 A2984 RMK A01 T01600037  RH  044%=      5-min Rain = 0
KAM1 081716Z 27015KT 16/04 A2984 RMK A01 T01590037  RH  044%=      5-min Rain = 0
KAM1 081717Z 27013KT 16/04 A2984 RMK A01 T01590039  RH  045%=      5-min Rain = 0
KAM1 081718Z 25014KT 16/04 A2983 RMK A01 T01610041  RH  045%=      5-min Rain = 0
KAM1 081719Z 26016G22KT 16/04 A2983 RMK A01 T01630043  RH  045%=      5-min Rain = 0
KAM1 081720Z 26017KT 16/04 A2983 RMK A01 T01640040  RH  044%=      5-min Rain = 0
KAM1 081721Z 26014G19KT 16/04 A2983 RMK A01 T01640040  RH  044%=      5-min Rain = 0
KAM1 081722Z 26017G22KT 17/04 A2983 RMK A01 T01650041  RH  044%=      5-min Rain = 0
KAM1 081723Z 26018KT 17/04 A2983 RMK A01 T01650040  RH  043%=      5-min Rain = 0
KAM1 081724Z 27015G20KT 17/04 A2983 RMK A01 T01650041  RH  044%=      5-min Rain = 0
KAM1 081725Z 27016KT 17/04 A2983 RMK A01 T01660040  RH  043%=      5-min Rain = 0
KAM1 081726Z 26014KT 17/04 A2983 RMK A01 T01660041  RH  043%=      5-min Rain = 0
KAM1 081727Z 26012G18KT 17/04 A2983 RMK A01 T01670043  RH  044%=      5-min Rain = 0
KAM1 081728Z 26015KT 17/04 A2983 RMK A01 T01690044  RH  043%=      5-min Rain = 0
KAM1 081729Z 26018KT 17/04 A2983 RMK A01 T01700043  RH  043%=      5-min Rain = 0
KAM1 081730Z 26020KT 17/04 A2983 RMK A01 T01690039  RH  042%=      5-min Rain = 0
KAM1 081731Z 26017G22KT 17/04 A2983 RMK A01 T01670039  RH  042%=      5-min Rain = 0
KAM1 081732Z 26019KT 17/04 A2983 RMK A01 T01670040  RH  043%=      5-min Rain = 0
KAM1 081733Z 26016G21KT 17/04 A2983 RMK A01 T01670040  RH  043%=      5-min Rain = 0
KAM1 081734Z 25018KT 17/04 A2983 RMK A01 T01680041  RH  043%=      5-min Rain = 0
KAM1 081735Z 26016KT 17/04 A2983 RMK A01 T01690041  RH  043%=      5-min Rain = 0
KAM1 081736Z 26016G22KT 17/04 A2983 RMK A01 T01690043  RH  043%=      5-min Rain = 0
KAM1 081737Z 26017KT 17/04 A2983 RMK A01 T01710042  RH  042%=      5-min Rain = 0
KAM1 081738Z 27017KT 17/04 A2982 RMK A01 T01710043  RH  042%=      5-min Rain = 0
KAM1 081739Z 26015KT 17/04 A2982 RMK A01 T01710042  RH  042%=      5-min Rain = 0
KAM1 081740Z 25016KT 17/04 A2982 RMK A01 T01720044  RH  043%=      5-min Rain = 0
KAM1 081741Z 25019KT 17/04 A2982 RMK A01 T01720042  RH  042%=      5-min Rain = 0
KAM1 081742Z 26018KT 17/04 A2982 RMK A01 T01710041  RH  042%=      5-min Rain = 0
KAM1 081743Z 26015KT 17/04 A2981 RMK A01 T01710041  RH  042%=      5-min Rain = 0
KAM1 081744Z 27018KT 17/04 A2981 RMK A01 T01710042  RH  042%=      5-min Rain = 0
KAM1 081745Z 26018KT 17/04 A2981 RMK A01 T01720040  RH  042%=      5-min Rain = 0
KAM1 081746Z 26013G18KT 17/04 A2981 RMK A01 T01700041  RH  042%=      5-min Rain = 0
KAM1 081747Z 27018KT 17/04 A2981 RMK A01 T01720044  RH  042%=      5-min Rain = 0
KAM1 081748Z 26017KT 17/04 A2981 RMK A01 T01730041  RH  042%=      5-min Rain = 0
KAM1 081749Z 26018G23KT 17/04 A2981 RMK A01 T01720043  RH  042%=      5-min Rain = 0
KAM1 081750Z 27019KT 17/04 A2981 RMK A01 T01720041  RH  042%=      5-min Rain = 0
KAM1 081751Z 27015KT 17/04 A2981 RMK A01 T01730043  RH  042%=      5-min Rain = 0
KAM1 081752Z 27020G25KT 18/04 A2981 RMK A01 T01750044  RH  042%=      5-min Rain = 0
KAM1 081753Z 27017KT 18/04 A2981 RMK A01 T01750042  RH  041%=      5-min Rain = 0
KAM1 081754Z 27019KT 17/04 A298 RMK A01 T01730041  RH  041%=      5-min Rain = 0
KAM1 081755Z 27017KT 17/04 A298 RMK A01 T01730041  RH  042%=      5-min Rain = 0
KAM1 081756Z 27017KT 17/04 A298 RMK A01 T01740042  RH  042%=      5-min Rain = 0
KAM1 081757Z 27016KT 18/04 A298 RMK A01 T01760044  RH  042%=      5-min Rain = 0
KAM1 081758Z 27018KT 18/04 A298 RMK A01 T01780044  RH  041%=      5-min Rain = 0
KAM1 081759Z 27017G22KT 18/04 A298 RMK A01 T01780043  RH  041%=      5-min Rain = 0
KAM1 081800Z 27016KT 18/04 A298 RMK A01 T01780043  RH  041%=      5-min Rain = 0
KAM1 081801Z 26015KT 18/04 A298 RMK A01 T01780044  RH  041%=      5-min Rain = 0
KAM1 081802Z 26018KT 18/05 A298 RMK A01 T01790046  RH  041%=      5-min Rain = 0
KAM1 081803Z 26018KT 18/05 A298 RMK A01 T01790045  RH  041%=      5-min Rain = 0
KAM1 081804Z 26017KT 18/04 A298 RMK A01 T01790044  RH  041%=      5-min Rain = 0
KAM1 081805Z 26020KT 18/05 A298 RMK A01 T01790045  RH  041%=      5-min Rain = 0
KAM1 081806Z 26019KT 18/04 A298 RMK A01 T01790044  RH  041%=      5-min Rain = 0
KAM1 081807Z 26019KT 18/04 A298 RMK A01 T01790044  RH  041%=      5-min Rain = 0
KAM1 081808Z 26018KT 18/04 A298 RMK A01 T01790044  RH  041%=      5-min Rain = 0
KAM1 081809Z 26018KT 18/04 A2979 RMK A01 T01800044  RH  040%=      5-min Rain = 0
KAM1 081810Z 26016KT 18/04 A2979 RMK A01 T01800044  RH  041%=      5-min Rain = 0
KAM1 081811Z 26017KT 18/05 A2979 RMK A01 T01800045  RH  041%=      5-min Rain = 0
KAM1 081812Z 26018KT 18/05 A2979 RMK A01 T01810045  RH  041%=      5-min Rain = 0
KAM1 081813Z 26013KT 18/05 A2979 RMK A01 T01810045  RH  040%=      5-min Rain = 0
KAM1 081814Z 26016G21KT 18/05 A2979 RMK A01 T01840048  RH  041%=      5-min Rain = 0
KAM1 081815Z 26019KT 19/05 A2979 RMK A01 T01860046  RH  040%=      5-min Rain = 0
KAM1 081816Z 27018KT 18/04 A2979 RMK A01 T01830043  RH  039%=      5-min Rain = 0
KAM1 081817Z 27019KT 18/04 A2979 RMK A01 T01810042  RH  040%=      5-min Rain = 0
KAM1 081818Z 26017G22KT 18/04 A2979 RMK A01 T01800042  RH  040%=      5-min Rain = 0
KAM1 081819Z 26018KT 18/04 A2979 RMK A01 T01790042  RH  040%=      5-min Rain = 0
KAM1 081820Z 27021KT 18/04 A2978 RMK A01 T01790040  RH  040%=      5-min Rain = 0
KAM1 081821Z 27019KT 18/04 A2978 RMK A01 T01800039  RH  039%=      5-min Rain = 0
KAM1 081822Z 27020KT 18/04 A2978 RMK A01 T01800040  RH  039%=      5-min Rain = 0
KAM1 081823Z 26017G22KT 18/04 A2978 RMK A01 T01810040  RH  039%=      5-min Rain = 0
KAM1 081824Z 26016KT 18/04 A2978 RMK A01 T01830042  RH  039%=      5-min Rain = 0
KAM1 081825Z 26018G25KT 19/05 A2978 RMK A01 T01860046  RH  039%=      5-min Rain = 0
KAM1 081826Z 26019KT 19/04 A2978 RMK A01 T01860042  RH  038%=      5-min Rain = 0
KAM1 081827Z 26017KT 19/04 A2978 RMK A01 T01850043  RH  039%=      5-min Rain = 0
KAM1 081828Z 26019G24KT 18/04 A2978 RMK A01 T01840042  RH  039%=      5-min Rain = 0
KAM1 081829Z 26019G24KT 18/04 A2978 RMK A01 T01820041  RH  039%=      5-min Rain = 0
KAM1 081830Z 26020G25KT 18/04 A2978 RMK A01 T01800040  RH  039%=      5-min Rain = 0
KAM1 081831Z 26019KT 18/04 A2978 RMK A01 T01780041  RH  040%=      5-min Rain = 0
KAM1 081832Z 26018KT 18/04 A2978 RMK A01 T01780041  RH  040%=      5-min Rain = 0
KAM1 081833Z 26017KT 18/04 A2978 RMK A01 T01790042  RH  040%=      5-min Rain = 0
KAM1 081834Z 26017KT 18/05 A2978 RMK A01 T01840045  RH  040%=      5-min Rain = 0
KAM1 081835Z 26016G21KT 19/05 A2978 RMK A01 T01880045  RH  039%=      5-min Rain = 0
KAM1 081836Z 26020KT 19/05 A2978 RMK A01 T01900045  RH  038%=      5-min Rain = 0
KAM1 081837Z 27021G26KT 19/04 A2978 RMK A01 T01910043  RH  038%=      5-min Rain = 0
KAM1 081838Z 27021G27KT 19/04 A2978 RMK A01 T01910041  RH  037%=      5-min Rain = 0
KAM1 081839Z 26023KT 19/04 A2978 RMK A01 T01920039  RH  036%=      5-min Rain = 0
KAM1 081840Z 26023KT 19/04 A2977 RMK A01 T01920038  RH  036%=      5-min Rain = 0
KAM1 081841Z 26020KT 19/04 A2977 RMK A01 T01910038  RH  036%=      5-min Rain = 0
KAM1 081842Z 27020KT 19/04 A2977 RMK A01 T01920039  RH  036%=      5-min Rain = 0
KAM1 081843Z 27018KT 19/04 A2977 RMK A01 T01930039  RH  036%=      5-min Rain = 0
KAM1 081844Z 26019G24KT 20/04 A2977 RMK A01 T01950038  RH  036%=      5-min Rain = 0
KAM1 081845Z 27023KT 20/04 A2977 RMK A01 T01960039  RH  035%=      5-min Rain = 0
KAM1 081846Z 27020G26KT 20/04 A2977 RMK A01 T01960039  RH  035%=      5-min Rain = 0
KAM1 081847Z 27019G24KT 20/04 A2977 RMK A01 T01960040  RH  036%=      5-min Rain = 0
KAM1 081848Z 27016G21KT 20/04 A2977 RMK A01 T01970040  RH  036%=      5-min Rain = 0
KAM1 081849Z 27017G22KT 20/04 A2977 RMK A01 T01970042  RH  036%=      5-min Rain = 0
KAM1 081850Z 27020G25KT 20/04 A2977 RMK A01 T01970041  RH  036%=      5-min Rain = 0
KAM1 081851Z 26019KT 20/04 A2977 RMK A01 T01950041  RH  036%=      5-min Rain = 0
KAM1 081852Z 26021G27KT 19/04 A2977 RMK A01 T01940041  RH  036%=      5-min Rain = 0
KAM1 081853Z 26021KT 19/04 A2977 RMK A01 T01940041  RH  037%=      5-min Rain = 0
KAM1 081854Z 26018G26KT 19/04 A2977 RMK A01 T01940042  RH  036%=      5-min Rain = 0
KAM1 081855Z 26023G31KT 20/04 A2977 RMK A01 T01950044  RH  037%=      5-min Rain = 0
KAM1 081856Z 26023G28KT 20/04 A2977 RMK A01 T01960042  RH  036%=      5-min Rain = 0
KAM1 081857Z 26023G29KT 19/04 A2977 RMK A01 T01930040  RH  036%=      5-min Rain = 0
KAM1 081858Z 26023KT 19/04 A2977 RMK A01 T01900040  RH  037%=      5-min Rain = 0
KAM1 081859Z 27018G23KT 19/04 A2976 RMK A01 T01890041  RH  038%=      5-min Rain = 0
KAM1 081900Z 26022KT 19/04 A2976 RMK A01 T01890041  RH  037%=      5-min Rain = 0
KAM1 081901Z 26021G26KT 19/04 A2976 RMK A01 T01890041  RH  037%=      5-min Rain = 0
KAM1 081902Z 26026G31KT 19/04 A2976 RMK A01 T01880039  RH  037%=      5-min Rain = 0
KAM1 081903Z 27024KT 19/04 A2976 RMK A01 T01880036  RH  037%=      5-min Rain = 0
KAM1 081904Z 27021G26KT 19/04 A2976 RMK A01 T01880036  RH  037%=      5-min Rain = 0
KAM1 081905Z 27021G28KT 19/04 A2976 RMK A01 T01880037  RH  037%=      5-min Rain = 0
KAM1 081906Z 27025G31KT 19/04 A2976 RMK A01 T01890036  RH  036%=      5-min Rain = 0
KAM1 081907Z 27021KT 19/04 A2976 RMK A01 T01890037  RH  036%=      5-min Rain = 0
KAM1 081908Z 26021G27KT 19/04 A2976 RMK A01 T01890037  RH  036%=      5-min Rain = 0
KAM1 081909Z 26024KT 19/04 A2976 RMK A01 T01900037  RH  036%=      5-min Rain = 0
KAM1 081910Z 27025G30KT 19/04 A2976 RMK A01 T01890036  RH  036%=      5-min Rain = 0
KAM1 081911Z 26023G28KT 19/04 A2976 RMK A01 T01880036  RH  036%=      5-min Rain = 0
KAM1 081912Z 26024KT 19/04 A2976 RMK A01 T01880035  RH  036%=      5-min Rain = 0
KAM1 081913Z 26020KT 19/03 A2976 RMK A01 T01880034  RH  036%=      5-min Rain = 0
KAM1 081914Z 27017KT 19/04 A2976 RMK A01 T01900038  RH  036%=      5-min Rain = 0
KAM1 081915Z 26019G24KT 19/04 A2976 RMK A01 T01930039  RH  036%=      5-min Rain = 0
KAM1 081916Z 27019G25KT 19/04 A2976 RMK A01 T01930040  RH  036%=      5-min Rain = 0
KAM1 081917Z 27021KT 19/04 A2976 RMK A01 T01940040  RH  036%=      5-min Rain = 0
KAM1 081918Z 27018KT 19/04 A2976 RMK A01 T01940039  RH  036%=      5-min Rain = 0
KAM1 081919Z 26020G25KT 19/04 A2976 RMK A01 T01940040  RH  036%=      5-min Rain = 0
KAM1 081920Z 27021KT 19/04 A2976 RMK A01 T01940038  RH  036%=      5-min Rain = 0
KAM1 081921Z 27016G21KT 19/04 A2977 RMK A01 T01930038  RH  036%=      5-min Rain = 0
KAM1 081922Z 28020G26KT 19/04 A2976 RMK A01 T01930038  RH  036%=      5-min Rain = 0
KAM1 081923Z 28020G25KT 19/04 A2976 RMK A01 T01920037  RH  036%=      5-min Rain = 0
KAM1 081924Z 27019KT 19/04 A2976 RMK A01 T01930038  RH  036%=      5-min Rain = 0
KAM1 081925Z 27017G22KT 20/04 A2976 RMK A01 T01950039  RH  036%=      5-min Rain = 0
KAM1 081926Z 27019KT 20/04 A2976 RMK A01 T01970040  RH  035%=      5-min Rain = 0
KAM1 081927Z 28018KT 20/04 A2976 RMK A01 T01970038  RH  035%=      5-min Rain = 0
KAM1 081928Z 28017G24KT 20/04 A2976 RMK A01 T01980040  RH  035%=      5-min Rain = 0
KAM1 081929Z 27015G20KT 20/04 A2976 RMK A01 T02010043  RH  035%=      5-min Rain = 0
KAM1 081930Z 27019G25KT 20/04 A2976 RMK A01 T02040043  RH  035%=      5-min Rain = 0
KAM1 081931Z 27023KT 21/04 A2976 RMK A01 T02050039  RH  034%=      5-min Rain = 0
KAM1 081932Z 27020KT 20/04 A2976 RMK A01 T02030037  RH  033%=      5-min Rain = 0
KAM1 081933Z 27019KT 20/04 A2975 RMK A01 T02030037  RH  033%=      5-min Rain = 0
KAM1 081934Z 27020KT 20/04 A2975 RMK A01 T02030039  RH  034%=      5-min Rain = 0
KAM1 081935Z 27020KT 20/04 A2975 RMK A01 T02020038  RH  034%=      5-min Rain = 0
KAM1 081936Z 26019KT 20/04 A2975 RMK A01 T02010039  RH  034%=      5-min Rain = 0
KAM1 081937Z 27019G24KT 20/04 A2975 RMK A01 T02020041  RH  035%=      5-min Rain = 0
KAM1 081938Z 27023G31KT 20/04 A2975 RMK A01 T02030039  RH  034%=      5-min Rain = 0
KAM1 081939Z 27020KT 20/04 A2975 RMK A01 T02020039  RH  034%=      5-min Rain = 0
KAM1 081940Z 26021KT 20/04 A2975 RMK A01 T02000039  RH  035%=      5-min Rain = 0
KAM1 081941Z 27017KT 20/04 A2975 RMK A01 T02000040  RH  035%=      5-min Rain = 0
KAM1 081942Z 27021KT 20/04 A2975 RMK A01 T02000039  RH  034%=      5-min Rain = 0
KAM1 081943Z 26020G26KT 20/04 A2975 RMK A01 T01990038  RH  034%=      5-min Rain = 0
KAM1 081944Z 26021KT 20/04 A2975 RMK A01 T01970038  RH  035%=      5-min Rain = 0
KAM1 081945Z 26019KT 20/04 A2975 RMK A01 T01960038  RH  035%=      5-min Rain = 0
KAM1 081946Z 26020KT 20/04 A2975 RMK A01 T01950037  RH  035%=      5-min Rain = 0
KAM1 081947Z 26017KT 20/04 A2975 RMK A01 T01950039  RH  036%=      5-min Rain = 0
KAM1 081948Z 26018KT 20/04 A2975 RMK A01 T01960039  RH  035%=      5-min Rain = 0
KAM1 081949Z 26021G28KT 20/04 A2975 RMK A01 T01970038  RH  035%=      5-min Rain = 0
KAM1 081950Z 26023KT 20/04 A2974 RMK A01 T01970037  RH  035%=      5-min Rain = 0
KAM1 081951Z 26021KT 20/04 A2974 RMK A01 T01970036  RH  034%=      5-min Rain = 0
KAM1 081952Z 26021KT 20/04 A2975 RMK A01 T01970036  RH  034%=      5-min Rain = 0
KAM1 081953Z 26021KT 20/04 A2975 RMK A01 T02000038  RH  034%=      5-min Rain = 0
KAM1 081954Z 26018KT 20/04 A2975 RMK A01 T02010039  RH  034%=      5-min Rain = 0
KAM1 081955Z 26020G26KT 20/04 A2975 RMK A01 T02020040  RH  034%=      5-min Rain = 0
KAM1 081956Z 26018KT 20/04 A2975 RMK A01 T02030040  RH  034%=      5-min Rain = 0
KAM1 081957Z 27017KT 20/04 A2974 RMK A01 T02030040  RH  034%=      5-min Rain = 0
KAM1 081958Z 26018KT 20/04 A2974 RMK A01 T02030040  RH  034%=      5-min Rain = 0
KAM1 081959Z 26018G25KT 20/04 A2974 RMK A01 T02020041  RH  034%=      5-min Rain = 0
KAM1 082000Z 26021G26KT 20/04 A2974 RMK A01 T02030041  RH  034%=      5-min Rain = 0
KAM1 082001Z 27021KT 20/04 A2974 RMK A01 T02030038  RH  034%=      5-min Rain = 0
KAM1 082002Z 27018KT 20/04 A2974 RMK A01 T02020036  RH  033%=      5-min Rain = 0
KAM1 082003Z 26021KT 20/04 A2974 RMK A01 T02010037  RH  034%=      5-min Rain = 0
KAM1 082004Z 26022G27KT 20/04 A2974 RMK A01 T02000037  RH  034%=      5-min Rain = 0
KAM1 082005Z 26021KT 20/04 A2974 RMK A01 T01990035  RH  034%=      5-min Rain = 0
KAM1 082006Z 26020KT 20/04 A2974 RMK A01 T01990036  RH  034%=      5-min Rain = 0
KAM1 082007Z 26017KT 20/04 A2974 RMK A01 T01990037  RH  034%=      5-min Rain = 0
KAM1 082008Z 26021G27KT 20/04 A2974 RMK A01 T01990035  RH  034%=      5-min Rain = 0
KAM1 082009Z 26021KT 20/03 A2974 RMK A01 T02000032  RH  033%=      5-min Rain = 0
KAM1 082010Z 27017G23KT 20/03 A2974 RMK A01 T02000033  RH  033%=      5-min Rain = 0
KAM1 082011Z 26022KT 20/03 A2974 RMK A01 T02010034  RH  033%=      5-min Rain = 0
KAM1 082012Z 26021KT 20/03 A2974 RMK A01 T02000034  RH  033%=      5-min Rain = 0
KAM1 082013Z 27019G24KT 20/03 A2974 RMK A01 T02010034  RH  033%=      5-min Rain = 0
KAM1 082014Z 27020G27KT 20/04 A2974 RMK A01 T02020035  RH  033%=      5-min Rain = 0
KAM1 082015Z 27015G21KT 20/04 A2974 RMK A01 T02030035  RH  033%=      5-min Rain = 0
KAM1 082016Z 26014KT 20/04 A2974 RMK A01 T02040039  RH  034%=      5-min Rain = 0
KAM1 082017Z 26021G28KT 21/04 A2974 RMK A01 T02060039  RH  033%=      5-min Rain = 0
KAM1 082018Z 26022G31KT 21/04 A2973 RMK A01 T02060036  RH  033%=      5-min Rain = 0
KAM1 082019Z 26023G30KT 20/04 A2973 RMK A01 T02040035  RH  033%=      5-min Rain = 0
KAM1 082020Z 26023G28KT 20/04 A2973 RMK A01 T02030036  RH  033%=      5-min Rain = 0
KAM1 082021Z 26020G25KT 20/04 A2973 RMK A01 T02020036  RH  033%=      5-min Rain = 0
KAM1 082022Z 26021G27KT 20/04 A2973 RMK A01 T02020038  RH  034%=      5-min Rain = 0
KAM1 082023Z 26021KT 20/04 A2973 RMK A01 T02020035  RH  033%=      5-min Rain = 0
KAM1 082024Z 27023KT 20/04 A2973 RMK A01 T02020035  RH  033%=      5-min Rain = 0
KAM1 082025Z 27021KT 20/04 A2973 RMK A01 T02020035  RH  033%=      5-min Rain = 0
KAM1 082026Z 27022G27KT 20/03 A2973 RMK A01 T02020034  RH  033%=      5-min Rain = 0
KAM1 082027Z 27024G30KT 20/03 A2973 RMK A01 T02020034  RH  033%=      5-min Rain = 0
KAM1 082028Z 27023KT 20/03 A2973 RMK A01 T02020034  RH  033%=      5-min Rain = 0
KAM1 082029Z 27022KT 20/03 A2973 RMK A01 T02020033  RH  033%=      5-min Rain = 0
KAM1 082030Z 27024KT 20/03 A2973 RMK A01 T02020032  RH  033%=      5-min Rain = 0
KAM1 082031Z 26020G27KT 20/03 A2973 RMK A01 T02020033  RH  033%=      5-min Rain = 0
KAM1 082032Z 26020G28KT 20/03 A2973 RMK A01 T02020034  RH  033%=      5-min Rain = 0
KAM1 082033Z 27018G23KT 20/04 A2973 RMK A01 T02020035  RH  033%=      5-min Rain = 0
KAM1 082034Z 27021G29KT 20/03 A2972 RMK A01 T02020034  RH  033%=      5-min Rain = 0
KAM1 082035Z 27017G27KT 20/03 A2972 RMK A01 T02020034  RH  033%=      5-min Rain = 0
KAM1 082036Z 28021G28KT 20/03 A2972 RMK A01 T02020033  RH  033%=      5-min Rain = 0
KAM1 082037Z 27022G28KT 20/03 A2972 RMK A01 T02020033  RH  033%=      5-min Rain = 0
KAM1 082038Z 26021KT 20/03 A2972 RMK A01 T02020033  RH  033%=      5-min Rain = 0
KAM1 082039Z 27023KT 20/03 A2972 RMK A01 T02020033  RH  033%=      5-min Rain = 0
KAM1 082040Z 27024G30KT 20/03 A2972 RMK A01 T02030031  RH  032%=      5-min Rain = 0
KAM1 082041Z 27022KT 20/03 A2972 RMK A01 T02020030  RH  032%=      5-min Rain = 0
KAM1 082042Z 27021KT 20/03 A2972 RMK A01 T02020030  RH  032%=      5-min Rain = 0
KAM1 082043Z 27020G25KT 20/03 A2972 RMK A01 T02020031  RH  032%=      5-min Rain = 0
KAM1 082044Z 28015G20KT 20/03 A2972 RMK A01 T02030032  RH  032%=      5-min Rain = 0
KAM1 082045Z 28019G24KT 21/03 A2972 RMK A01 T02050032  RH  032%=      5-min Rain = 0
KAM1 082046Z 28018G23KT 21/03 A2972 RMK A01 T02050032  RH  032%=      5-min Rain = 0
KAM1 082047Z 27021G26KT 21/03 A2972 RMK A01 T02050032  RH  032%=      5-min Rain = 0
KAM1 082048Z 27020G27KT 21/03 A2972 RMK A01 T02050033  RH  032%=      5-min Rain = 0
KAM1 082049Z 27019KT 21/03 A2972 RMK A01 T02050033  RH  032%=      5-min Rain = 0
KAM1 082050Z 27018KT 21/03 A2972 RMK A01 T02050032  RH  032%=      5-min Rain = 0
KAM1 082051Z 27018G23KT 21/03 A2972 RMK A01 T02050033  RH  032%=      5-min Rain = 0
KAM1 082052Z 27018G23KT 21/03 A2972 RMK A01 T02050034  RH  032%=      5-min Rain = 0
KAM1 082053Z 26016G21KT 21/04 A2972 RMK A01 T02060035  RH  032%=      5-min Rain = 0
KAM1 082054Z 26018G25KT 21/04 A2972 RMK A01 T02070037  RH  033%=      5-min Rain = 0
KAM1 082055Z 27022G27KT 21/04 A2972 RMK A01 T02070036  RH  032%=      5-min Rain = 0
KAM1 082056Z 27023KT 21/03 A2971 RMK A01 T02060034  RH  032%=      5-min Rain = 0
KAM1 082057Z 27021KT 20/03 A2972 RMK A01 T02040033  RH  032%=      5-min Rain = 0
KAM1 082058Z 27022G27KT 20/03 A2972 RMK A01 T02030033  RH  032%=      5-min Rain = 0
KAM1 082059Z 27024KT 20/03 A2972 RMK A01 T02030033  RH  033%=      5-min Rain = 0
KAM1 082100Z 26021G29KT 20/03 A2972 RMK A01 T02030033  RH  033%=      5-min Rain = 0
KAM1 082101Z 26021KT 20/03 A2972 RMK A01 T02030034  RH  033%=      5-min Rain = 0
KAM1 082102Z 26018G24KT 20/04 A2972 RMK A01 T02040036  RH  033%=      5-min Rain = 0
KAM1 082103Z 26017G22KT 21/04 A2972 RMK A01 T02060038  RH  033%=      5-min Rain = 0
KAM1 082104Z 26019KT 21/04 A2972 RMK A01 T02070037  RH  033%=      5-min Rain = 0
KAM1 082105Z 26019G25KT 21/04 A2972 RMK A01 T02070037  RH  033%=      5-min Rain = 0
KAM1 082106Z 26020G26KT 21/04 A2972 RMK A01 T02080036  RH  032%=      5-min Rain = 0
KAM1 082107Z 27018KT 21/03 A2972 RMK A01 T02080034  RH  032%=      5-min Rain = 0
KAM1 082108Z 27023G28KT 21/03 A2972 RMK A01 T02070031  RH  031%=      5-min Rain = 0
KAM1 082109Z 27025G31KT 21/03 A2972 RMK A01 T02060028  RH  031%=      5-min Rain = 0
KAM1 082110Z 26019G28KT 20/03 A2972 RMK A01 T02040030  RH  032%=      5-min Rain = 0
KAM1 082111Z 27021G26KT 20/03 A2971 RMK A01 T02040031  RH  032%=      5-min Rain = 0
KAM1 082112Z 26022G28KT 20/03 A2971 RMK A01 T02040031  RH  032%=      5-min Rain = 0
KAM1 082113Z 26022KT 20/03 A2971 RMK A01 T02040030  RH  032%=      5-min Rain = 0
KAM1 082114Z 26023KT 20/03 A2971 RMK A01 T02040030  RH  032%=      5-min Rain = 0
KAM1 082115Z 26025G34KT 20/03 A2971 RMK A01 T02030031  RH  032%=      5-min Rain = 0
KAM1 082116Z 26020G26KT 20/03 A2971 RMK A01 T02020030  RH  032%=      5-min Rain = 0
KAM1 082117Z 26023KT 20/03 A2971 RMK A01 T02010031  RH  032%=      5-min Rain = 0
KAM1 082118Z 27021G29KT 20/03 A2971 RMK A01 T02010031  RH  032%=      5-min Rain = 0
KAM1 082119Z 26024KT 20/03 A2972 RMK A01 T02000030  RH  032%=      5-min Rain = 0
KAM1 082120Z 26025G30KT 20/03 A2971 RMK A01 T02000027  RH  032%=      5-min Rain = 0
KAM1 082121Z 27026G32KT 20/03 A2971 RMK A01 T01990026  RH  032%=      5-min Rain = 0
KAM1 082122Z 27024G29KT 20/03 A2971 RMK A01 T01990026  RH  032%=      5-min Rain = 0
KAM1 082123Z 27023KT 20/03 A2972 RMK A01 T01990027  RH  032%=      5-min Rain = 0
KAM1 082124Z 26019G26KT 20/03 A2972 RMK A01 T01990028  RH  032%=      5-min Rain = 0
KAM1 082125Z 26022KT 20/03 A2972 RMK A01 T01990029  RH  032%=      5-min Rain = 0
KAM1 082126Z 27024G29KT 20/03 A2971 RMK A01 T01990028  RH  032%=      5-min Rain = 0
KAM1 082127Z 26023G28KT 20/03 A2971 RMK A01 T01990028  RH  032%=      5-min Rain = 0
KAM1 082128Z 27024G30KT 20/03 A2971 RMK A01 T01990029  RH  032%=      5-min Rain = 0
KAM1 082129Z 26020G29KT 20/03 A2971 RMK A01 T01980029  RH  032%=      5-min Rain = 0
KAM1 082130Z 26022G27KT 20/03 A2971 RMK A01 T01980030  RH  033%=      5-min Rain = 0
KAM1 082131Z 26020G25KT 20/03 A2971 RMK A01 T01980029  RH  033%=      5-min Rain = 0
KAM1 082132Z 26021KT 20/03 A2971 RMK A01 T01980031  RH  033%=      5-min Rain = 0
KAM1 082133Z 26020G27KT 20/03 A2971 RMK A01 T01990031  RH  033%=      5-min Rain = 0
KAM1 082134Z 25018KT 20/03 A2971 RMK A01 T01990034  RH  034%=      5-min Rain = 0
KAM1 082135Z 25022KT 20/03 A2971 RMK A01 T02000034  RH  034%=      5-min Rain = 0
KAM1 082136Z 25025G31KT 20/03 A2971 RMK A01 T02000034  RH  033%=      5-min Rain = 0
KAM1 082137Z 25025G31KT 20/03 A2971 RMK A01 T01990033  RH  033%=      5-min Rain = 0
KAM1 082138Z 25023G31KT 20/03 A2971 RMK A01 T01990033  RH  033%=      5-min Rain = 0
KAM1 082139Z 25023KT 20/03 A2971 RMK A01 T01990033  RH  033%=      5-min Rain = 0
KAM1 082140Z 25027G34KT 20/03 A2971 RMK A01 T01990032  RH  033%=      5-min Rain = 0
KAM1 082141Z 25024G30KT 20/03 A2971 RMK A01 T01990031  RH  033%=      5-min Rain = 0
KAM1 082142Z 25028G33KT 20/03 A2971 RMK A01 T01990031  RH  033%=      5-min Rain = 0
KAM1 082143Z 25028KT 20/03 A2971 RMK A01 T01990030  RH  033%=      5-min Rain = 0
KAM1 082144Z 25024G31KT 20/03 A2971 RMK A01 T01990030  RH  033%=      5-min Rain = 0
KAM1 082145Z 25026G34KT 20/03 A2971 RMK A01 T01990031  RH  033%=      5-min Rain = 0
KAM1 082146Z 25022G34KT 20/03 A2971 RMK A01 T01990030  RH  033%=      5-min Rain = 0
KAM1 082147Z 25025G31KT 20/03 A2971 RMK A01 T01990031  RH  033%=      5-min Rain = 0
KAM1 082148Z 26023G28KT 20/03 A2971 RMK A01 T01990031  RH  033%=      5-min Rain = 0
KAM1 082149Z 25023G31KT 20/03 A2971 RMK A01 T01990031  RH  033%=      5-min Rain = 0
KAM1 082150Z 25023KT 20/03 A2971 RMK A01 T01990030  RH  033%=      5-min Rain = 0
KAM1 082151Z 25022KT 20/03 A2971 RMK A01 T01990030  RH  033%=      5-min Rain = 0
KAM1 082152Z 24026G34KT 20/03 A2971 RMK A01 T01990030  RH  033%=      5-min Rain = 0
KAM1 082153Z 25023G30KT 20/03 A2971 RMK A01 T01990029  RH  033%=      5-min Rain = 0
KAM1 082154Z 25028G34KT 20/03 A297 RMK A01 T01980028  RH  032%=      5-min Rain = 0
KAM1 082155Z 25028G35KT 20/03 A297 RMK A01 T01970027  RH  032%=      5-min Rain = 0
KAM1 082156Z 25025G31KT 20/03 A2971 RMK A01 T01960027  RH  033%=      5-min Rain = 0
KAM1 082157Z 26025G33KT 20/03 A2971 RMK A01 T01950027  RH  033%=      5-min Rain = 0
KAM1 082158Z 25023G29KT 19/03 A2971 RMK A01 T01930027  RH  033%=      5-min Rain = 0
KAM1 082159Z 25024G31KT 19/03 A2971 RMK A01 T01920027  RH  033%=      5-min Rain = 0
KAM1 082200Z 25021G26KT 19/03 A2971 RMK A01 T01910027  RH  033%=      5-min Rain = 0
KAM1 082201Z 25022G30KT 19/03 A2971 RMK A01 T01900028  RH  034%=      5-min Rain = 0
KAM1 082202Z 26026G32KT 19/03 A297 RMK A01 T01900027  RH  034%=      5-min Rain = 0
KAM1 082203Z 25024G29KT 19/03 A297 RMK A01 T01900025  RH  033%=      5-min Rain = 0
KAM1 082204Z 26024KT 19/03 A297 RMK A01 T01890025  RH  033%=      5-min Rain = 0
KAM1 082205Z 26026G33KT 19/03 A297 RMK A01 T01880025  RH  034%=      5-min Rain = 0
KAM1 082206Z 25025G30KT 19/02 A297 RMK A01 T01880024  RH  034%=      5-min Rain = 0
KAM1 082207Z 25029G34KT 19/02 A297 RMK A01 T01880024  RH  034%=      5-min Rain = 0
KAM1 082208Z 25028G34KT 19/02 A297 RMK A01 T01870023  RH  033%=      5-min Rain = 0
KAM1 082209Z 25027KT 19/02 A297 RMK A01 T01880024  RH  034%=      5-min Rain = 0
KAM1 082210Z 25028G33KT 19/02 A297 RMK A01 T01880024  RH  034%=      5-min Rain = 0
KAM1 082211Z 25026G33KT 19/03 A297 RMK A01 T01880025  RH  034%=      5-min Rain = 0
KAM1 082212Z 25028KT 19/03 A297 RMK A01 T01880025  RH  034%=      5-min Rain = 0
KAM1 082213Z 26027G33KT 19/03 A297 RMK A01 T01880025  RH  034%=      5-min Rain = 0
KAM1 082214Z 25024KT 19/03 A297 RMK A01 T01880025  RH  034%=      5-min Rain = 0
KAM1 082215Z 25026KT 19/03 A297 RMK A01 T01880025  RH  034%=      5-min Rain = 0
KAM1 082216Z 25023KT 19/03 A2971 RMK A01 T01900026  RH  034%=      5-min Rain = 0
KAM1 082217Z 25019KT 19/03 A2971 RMK A01 T01910027  RH  034%=      5-min Rain = 0
KAM1 082218Z 25026G32KT 19/03 A2971 RMK A01 T01910028  RH  034%=      5-min Rain = 0
KAM1 082219Z 26026G31KT 19/03 A2971 RMK A01 T01920027  RH  033%=      5-min Rain = 0
KAM1 082220Z 25022G27KT 19/03 A2971 RMK A01 T01920027  RH  033%=      5-min Rain = 0
KAM1 082221Z 25024G32KT 19/03 A2971 RMK A01 T01920028  RH  034%=      5-min Rain = 0
KAM1 082222Z 25020KT 19/03 A2971 RMK A01 T01920028  RH  034%=      5-min Rain = 0
KAM1 082223Z 25026G31KT 19/03 A2971 RMK A01 T01920028  RH  033%=      5-min Rain = 0
KAM1 082224Z 26029KT 19/03 A2971 RMK A01 T01930027  RH  033%=      5-min Rain = 0
KAM1 082225Z 25022G33KT 19/03 A2971 RMK A01 T01930027  RH  033%=      5-min Rain = 0
KAM1 082226Z 25022G30KT 19/03 A2971 RMK A01 T01920028  RH  034%=      5-min Rain = 0
KAM1 082227Z 25025KT 19/03 A2971 RMK A01 T01920027  RH  033%=      5-min Rain = 0
KAM1 082228Z 25024G38KT 19/03 A2972 RMK A01 T01910027  RH  034%=      5-min Rain = 0
KAM1 082229Z 26029G34KT 19/03 A2971 RMK A01 T01900026  RH  034%=      5-min Rain = 0
KAM1 082230Z 25024G29KT 19/03 A2972 RMK A01 T01890026  RH  034%=      5-min Rain = 0
KAM1 082231Z 26024G31KT 19/03 A2972 RMK A01 T01880026  RH  034%=      5-min Rain = 0
KAM1 082232Z 25024G29KT 19/03 A2972 RMK A01 T01880026  RH  034%=      5-min Rain = 0
KAM1 082233Z 25028G36KT 19/03 A2972 RMK A01 T01870026  RH  034%=      5-min Rain = 0
KAM1 082234Z 26025G32KT 19/03 A2972 RMK A01 T01870025  RH  034%=      5-min Rain = 0
KAM1 082235Z 25025G30KT 19/03 A2972 RMK A01 T01860026  RH  034%=      5-min Rain = 0
KAM1 082236Z 25026KT 19/03 A2972 RMK A01 T01860026  RH  034%=      5-min Rain = 0
KAM1 082237Z 25027G34KT 19/03 A2972 RMK A01 T01850025  RH  034%=      5-min Rain = 0
KAM1 082238Z 25025G30KT 19/03 A2972 RMK A01 T01850025  RH  034%=      5-min Rain = 0
KAM1 082239Z 25026G32KT 18/03 A2972 RMK A01 T01840025  RH  034%=      5-min Rain = 0
KAM1 082240Z 25025G32KT 18/02 A2972 RMK A01 T01830024  RH  035%=      5-min Rain = 0
KAM1 082241Z 25025KT 18/02 A2972 RMK A01 T01820024  RH  035%=      5-min Rain = 0
KAM1 082242Z 25024G31KT 18/02 A2972 RMK A01 T01810024  RH  035%=      5-min Rain = 0
KAM1 082243Z 25024G29KT 18/02 A2972 RMK A01 T01790024  RH  035%=      5-min Rain = 0
KAM1 082244Z 25026G31KT 18/02 A2972 RMK A01 T01790024  RH  035%=      5-min Rain = 0
KAM1 082245Z 26028G35KT 18/02 A2972 RMK A01 T01780024  RH  036%=      5-min Rain = 0
KAM1 082246Z 26025G30KT 18/02 A2972 RMK A01 T01780023  RH  035%=      5-min Rain = 0
KAM1 082247Z 26022G27KT 18/02 A2972 RMK A01 T01780024  RH  036%=      5-min Rain = 0
KAM1 082248Z 26022G27KT 18/03 A2972 RMK A01 T01770025  RH  036%=      5-min Rain = 0
KAM1 082249Z 26024KT 18/03 A2972 RMK A01 T01760025  RH  036%=      5-min Rain = 0
KAM1 082250Z 26021KT 18/02 A2972 RMK A01 T01760024  RH  036%=      5-min Rain = 0
KAM1 082251Z 26020G25KT 18/03 A2972 RMK A01 T01750025  RH  037%=      5-min Rain = 0
KAM1 082252Z 26024G29KT 17/03 A2972 RMK A01 T01740025  RH  037%=      5-min Rain = 0
KAM1 082253Z 26023G28KT 17/02 A2973 RMK A01 T01740024  RH  037%=      5-min Rain = 0
KAM1 082254Z 26021G26KT 17/02 A2973 RMK A01 T01740024  RH  037%=      5-min Rain = 0
KAM1 082255Z 26023KT 17/02 A2973 RMK A01 T01730024  RH  037%=      5-min Rain = 0
KAM1 082256Z 26021G26KT 17/03 A2973 RMK A01 T01730025  RH  037%=      5-min Rain = 0
KAM1 082257Z 27019G26KT 17/02 A2973 RMK A01 T01720024  RH  037%=      5-min Rain = 0
KAM1 082258Z 26020G27KT 17/02 A2973 RMK A01 T01720024  RH  037%=      5-min Rain = 0
KAM1 082259Z 27020G27KT 17/03 A2973 RMK A01 T01710025  RH  037%=      5-min Rain = 0
KAM1 082300Z 27022KT 17/02 A2973 RMK A01 T01700024  RH  038%=      5-min Rain = 0
KAM1 082301Z 27020G25KT 17/03 A2973 RMK A01 T01700025  RH  038%=      5-min Rain = 0
KAM1 082302Z 26019KT 17/03 A2973 RMK A01 T01700025  RH  038%=      5-min Rain = 0
KAM1 082303Z 27021G26KT 17/03 A2973 RMK A01 T01690025  RH  038%=      5-min Rain = 0
KAM1 082304Z 26023KT 17/03 A2972 RMK A01 T01690025  RH  038%=      5-min Rain = 0
KAM1 082305Z 26021KT 17/03 A2972 RMK A01 T01690025  RH  038%=      5-min Rain = 0
KAM1 082306Z 26020KT 17/03 A2972 RMK A01 T01690025  RH  038%=      5-min Rain = 0
KAM1 082307Z 26019KT 17/03 A2972 RMK A01 T01690025  RH  038%=      5-min Rain = 0
KAM1 082308Z 26016G21KT 17/03 A2972 RMK A01 T01680025  RH  038%=      5-min Rain = 0
KAM1 082309Z 26018KT 17/03 A2972 RMK A01 T01670025  RH  039%=      5-min Rain = 0
KAM1 082310Z 26017KT 17/03 A2972 RMK A01 T01660025  RH  039%=      5-min Rain = 0
KAM1 082311Z 26019G24KT 17/03 A2972 RMK A01 T01660025  RH  039%=      5-min Rain = 0
KAM1 082312Z 26018G23KT 17/03 A2972 RMK A01 T01660025  RH  039%=      5-min Rain = 0
KAM1 082313Z 26018KT 17/03 A2972 RMK A01 T01650025  RH  039%=      5-min Rain = 0
KAM1 082314Z 26019KT 17/02 A2972 RMK A01 T01650024  RH  039%=      5-min Rain = 0
KAM1 082315Z 26016KT 17/02 A2972 RMK A01 T01650024  RH  039%=      5-min Rain = 0
KAM1 082316Z 27016KT 16/02 A2972 RMK A01 T01640024  RH  039%=      5-min Rain = 0
KAM1 082317Z 26014KT 16/02 A2972 RMK A01 T01630024  RH  039%=      5-min Rain = 0
KAM1 082318Z 26016KT 16/02 A2972 RMK A01 T01620024  RH  040%=      5-min Rain = 0
KAM1 082319Z 26017KT 16/02 A2972 RMK A01 T01610024  RH  040%=      5-min Rain = 0
KAM1 082320Z 26016KT 16/02 A2972 RMK A01 T01610024  RH  040%=      5-min Rain = 0
KAM1 082321Z 26014KT 16/02 A2972 RMK A01 T01600024  RH  040%=      5-min Rain = 0
KAM1 082322Z 26016KT 16/02 A2972 RMK A01 T01590024  RH  040%=      5-min Rain = 0
KAM1 082323Z 26017KT 16/03 A2972 RMK A01 T01590025  RH  040%=      5-min Rain = 0
KAM1 082324Z 26016KT 16/02 A2972 RMK A01 T01580024  RH  040%=      5-min Rain = 0
KAM1 082325Z 26015KT 16/03 A2972 RMK A01 T01590025  RH  040%=      5-min Rain = 0
KAM1 082326Z 26014KT 16/03 A2973 RMK A01 T01590025  RH  040%=      5-min Rain = 0
KAM1 082327Z 26015KT 16/03 A2973 RMK A01 T01580025  RH  041%=      5-min Rain = 0
KAM1 082328Z 25013KT 16/03 A2973 RMK A01 T01570025  RH  041%=      5-min Rain = 0
KAM1 082329Z 25015KT 16/03 A2973 RMK A01 T01560025  RH  041%=      5-min Rain = 0
KAM1 082330Z 25015KT 16/03 A2973 RMK A01 T01560025  RH  041%=      5-min Rain = 0
KAM1 082331Z 26015KT 16/03 A2973 RMK A01 T01560025  RH  041%=      5-min Rain = 0
KAM1 082332Z 26015KT 16/03 A2972 RMK A01 T01560025  RH  041%=      5-min Rain = 0
KAM1 082333Z 26015KT 16/03 A2972 RMK A01 T01550025  RH  042%=      5-min Rain = 0
KAM1 082334Z 26014KT 16/03 A2973 RMK A01 T01550026  RH  042%=      5-min Rain = 0
KAM1 082335Z 26016KT 15/03 A2973 RMK A01 T01540026  RH  042%=      5-min Rain = 0
KAM1 082336Z 26017KT 15/03 A2973 RMK A01 T01540026  RH  042%=      5-min Rain = 0
KAM1 082337Z 26017KT 15/03 A2972 RMK A01 T01540026  RH  042%=      5-min Rain = 0
KAM1 082338Z 26015G21KT 15/03 A2972 RMK A01 T01540026  RH  042%=      5-min Rain = 0
KAM1 082339Z 25018KT 15/03 A2973 RMK A01 T01540026  RH  042%=      5-min Rain = 0
KAM1 082340Z 25018KT 15/03 A2973 RMK A01 T01540026  RH  042%=      5-min Rain = 0
KAM1 082341Z 25015KT 15/03 A2973 RMK A01 T01540026  RH  042%=      5-min Rain = 0
KAM1 082342Z 26016KT 15/03 A2973 RMK A01 T01540026  RH  042%=      5-min Rain = 0
KAM1 082343Z 25016KT 15/03 A2973 RMK A01 T01540026  RH  042%=      5-min Rain = 0
KAM1 082344Z 25014KT 15/03 A2973 RMK A01 T01540026  RH  042%=      5-min Rain = 0
KAM1 082345Z 26015KT 15/03 A2973 RMK A01 T01540026  RH  042%=      5-min Rain = 0
KAM1 082346Z 26017KT 15/03 A2973 RMK A01 T01530026  RH  042%=      5-min Rain = 0
KAM1 082347Z 26014KT 15/03 A2973 RMK A01 T01540027  RH  042%=      5-min Rain = 0
KAM1 082348Z 26014G19KT 15/03 A2973 RMK A01 T01540027  RH  042%=      5-min Rain = 0
KAM1 082349Z 25013KT 15/03 A2973 RMK A01 T01520027  RH  043%=      5-min Rain = 0
KAM1 082350Z 26016KT 15/03 A2973 RMK A01 T01510026  RH  043%=      5-min Rain = 0
KAM1 082351Z 26017KT 15/03 A2973 RMK A01 T01510027  RH  043%=      5-min Rain = 0
KAM1 082352Z 25017KT 15/03 A2973 RMK A01 T01510027  RH  043%=      5-min Rain = 0
KAM1 082353Z 26017G24KT 15/03 A2973 RMK A01 T01510027  RH  043%=      5-min Rain = 0
KAM1 082354Z 25019G26KT 15/03 A2973 RMK A01 T01510028  RH  043%=      5-min Rain = 0
KAM1 082355Z 25017G22KT 15/03 A2973 RMK A01 T01510028  RH  043%=      5-min Rain = 0
KAM1 082356Z 26021G26KT 15/03 A2973 RMK A01 T01520028  RH  043%=      5-min Rain = 0
KAM1 082357Z 25019G24KT 15/03 A2973 RMK A01 T01520028  RH  043%=      5-min Rain = 0
KAM1 082358Z 26019KT 15/03 A2973 RMK A01 T01520027  RH  043%=      5-min Rain = 0
KAM1 082359Z 26018KT 15/03 A2973 RMK A01 T01520028  RH  043%=      5-min Rain = 0
KAM1 090000Z 26019KT 15/03 A2973 RMK A01 T01520027  RH  043%=      5-min Rain = 0
KAM1 090001Z 26018KT 15/03 A2973 RMK A01 T01510028  RH  043%=      5-min Rain = 0
KAM1 090002Z 26017KT 15/03 A2973 RMK A01 T01510028  RH  043%=      5-min Rain = 0
KAM1 090003Z 26015KT 15/03 A2973 RMK A01 T01500028  RH  044%=      5-min Rain = 0
KAM1 090004Z 26015KT 15/03 A2973 RMK A01 T01480027  RH  044%=      5-min Rain = 0
KAM1 090005Z 25016G22KT 15/03 A2973 RMK A01 T01480028  RH  044%=      5-min Rain = 0
KAM1 090006Z 25015KT 15/03 A2973 RMK A01 T01480028  RH  045%=      5-min Rain = 0
KAM1 090007Z 25015KT 15/03 A2973 RMK A01 T01470028  RH  045%=      5-min Rain = 0
KAM1 090008Z 25017KT 15/03 A2973 RMK A01 T01460028  RH  045%=      5-min Rain = 0
KAM1 090009Z 26014KT 15/03 A2973 RMK A01 T01460028  RH  045%=      5-min Rain = 0
KAM1 090010Z 26014KT 15/03 A2973 RMK A01 T01460028  RH  045%=      5-min Rain = 0
KAM1 090011Z 26015KT 15/03 A2973 RMK A01 T01450028  RH  045%=      5-min Rain = 0
KAM1 090012Z 26015KT 14/03 A2973 RMK A01 T01440028  RH  045%=      5-min Rain = 0
KAM1 090013Z 26016KT 14/03 A2973 RMK A01 T01440028  RH  046%=      5-min Rain = 0
KAM1 090014Z 25015KT 14/03 A2973 RMK A01 T01430028  RH  046%=      5-min Rain = 0
KAM1 090015Z 26015KT 14/03 A2973 RMK A01 T01430028  RH  046%=      5-min Rain = 0
KAM1 090016Z 25015KT 14/03 A2973 RMK A01 T01430028  RH  046%=      5-min Rain = 0
KAM1 090017Z 26015KT 14/03 A2974 RMK A01 T01420028  RH  046%=      5-min Rain = 0
KAM1 090018Z 26014G19KT 14/03 A2974 RMK A01 T01420028  RH  046%=      5-min Rain = 0
KAM1 090019Z 25015KT 14/03 A2974 RMK A01 T01420028  RH  046%=      5-min Rain = 0
KAM1 090020Z 26014KT 14/03 A2974 RMK A01 T01410028  RH  046%=      5-min Rain = 0
KAM1 090021Z 26016KT 14/03 A2974 RMK A01 T01400028  RH  047%=      5-min Rain = 0
KAM1 090022Z 25013KT 14/03 A2974 RMK A01 T01400028  RH  047%=      5-min Rain = 0
KAM1 090023Z 26015KT 14/03 A2974 RMK A01 T01400028  RH  047%=      5-min Rain = 0
KAM1 090024Z 25016KT 14/03 A2973 RMK A01 T01400028  RH  047%=      5-min Rain = 0
KAM1 090025Z 25015KT 14/03 A2973 RMK A01 T01400028  RH  047%=      5-min Rain = 0
KAM1 090026Z 25013KT 14/03 A2973 RMK A01 T01400027  RH  047%=      5-min Rain = 0
KAM1 090027Z 25016KT 14/03 A2974 RMK A01 T01400027  RH  047%=      5-min Rain = 0
KAM1 090028Z 25017KT 14/03 A2973 RMK A01 T01400028  RH  047%=      5-min Rain = 0
KAM1 090029Z 25017KT 14/03 A2973 RMK A01 T01400027  RH  047%=      5-min Rain = 0
KAM1 090030Z 25016KT 14/03 A2973 RMK A01 T01400027  RH  047%=      5-min Rain = 0
KAM1 090031Z 25018G23KT 14/03 A2973 RMK A01 T01400027  RH  047%=      5-min Rain = 0
KAM1 090032Z 25017KT 14/03 A2973 RMK A01 T01400027  RH  047%=      5-min Rain = 0
KAM1 090033Z 25017KT 14/03 A2973 RMK A01 T01400028  RH  046%=      5-min Rain = 0
KAM1 090034Z 25017KT 14/03 A2973 RMK A01 T01400028  RH  047%=      5-min Rain = 0
KAM1 090035Z 25018KT 14/03 A2973 RMK A01 T01400027  RH  047%=      5-min Rain = 0
KAM1 090036Z 25018KT 14/03 A2973 RMK A01 T01390027  RH  047%=      5-min Rain = 0
KAM1 090037Z 25018KT 14/03 A2974 RMK A01 T01390028  RH  047%=      5-min Rain = 0
KAM1 090038Z 25018KT 14/03 A2974 RMK A01 T01390027  RH  047%=      5-min Rain = 0
KAM1 090039Z 25018KT 14/03 A2974 RMK A01 T01390027  RH  047%=      5-min Rain = 0
KAM1 090040Z 25019G24KT 14/03 A2974 RMK A01 T01400027  RH  047%=      5-min Rain = 0
KAM1 090041Z 25016KT 14/03 A2974 RMK A01 T01400028  RH  046%=      5-min Rain = 0
KAM1 090042Z 25017KT 14/03 A2974 RMK A01 T01400027  RH  046%=      5-min Rain = 0
KAM1 090043Z 25017KT 14/03 A2974 RMK A01 T01400027  RH  046%=      5-min Rain = 0
KAM1 090044Z 25018KT 14/03 A2974 RMK A01 T01400027  RH  046%=      5-min Rain = 0
KAM1 090045Z 25015KT 14/03 A2974 RMK A01 T01400027  RH  047%=      5-min Rain = 0
KAM1 090046Z 25014G19KT 14/03 A2974 RMK A01 T01390027  RH  047%=      5-min Rain = 0
KAM1 090047Z 25015KT 14/03 A2974 RMK A01 T01380026  RH  047%=      5-min Rain = 0
KAM1 090048Z 25016KT 14/03 A2974 RMK A01 T01380027  RH  047%=      5-min Rain = 0
KAM1 090049Z 25015KT 14/03 A2974 RMK A01 T01380027  RH  047%=      5-min Rain = 0
KAM1 090050Z 25016KT 14/03 A2974 RMK A01 T01380027  RH  047%=      5-min Rain = 0
KAM1 090051Z 25016KT 14/03 A2974 RMK A01 T01380027  RH  047%=      5-min Rain = 0
KAM1 090052Z 25015KT 14/03 A2974 RMK A01 T01370027  RH  047%=      5-min Rain = 0
KAM1 090053Z 25017KT 14/03 A2974 RMK A01 T01370027  RH  047%=      5-min Rain = 0
KAM1 090054Z 26017KT 14/03 A2974 RMK A01 T01370027  RH  047%=      5-min Rain = 0
KAM1 090055Z 25017G22KT 14/03 A2974 RMK A01 T01380027  RH  047%=      5-min Rain = 0
KAM1 090056Z 25017KT 14/03 A2974 RMK A01 T01390027  RH  047%=      5-min Rain = 0
KAM1 090057Z 25019KT 14/03 A2974 RMK A01 T01400028  RH  047%=      5-min Rain = 0
KAM1 090058Z 26016G21KT 14/03 A2974 RMK A01 T01400027  RH  046%=      5-min Rain = 0
KAM1 090059Z 26018KT 14/03 A2974 RMK A01 T01400027  RH  046%=      5-min Rain = 0
KAM1 090100Z 26020KT 14/03 A2974 RMK A01 T01390027  RH  046%=      5-min Rain = 0
KAM1 090101Z 25018KT 14/03 A2974 RMK A01 T01400027  RH  046%=      5-min Rain = 0
KAM1 090102Z 25017KT 14/03 A2974 RMK A01 T01400027  RH  046%=      5-min Rain = 0
KAM1 090103Z 25017KT 14/03 A2974 RMK A01 T01390027  RH  047%=      5-min Rain = 0
KAM1 090104Z 25018KT 14/03 A2974 RMK A01 T01380027  RH  047%=      5-min Rain = 0
KAM1 090105Z 25019G25KT 14/03 A2974 RMK A01 T01380026  RH  047%=      5-min Rain = 0
KAM1 090106Z 26019G24KT 14/03 A2974 RMK A01 T01380026  RH  047%=      5-min Rain = 0
KAM1 090107Z 26020KT 14/03 A2974 RMK A01 T01390026  RH  047%=      5-min Rain = 0
KAM1 090108Z 25019G24KT 14/03 A2974 RMK A01 T01390026  RH  046%=      5-min Rain = 0
KAM1 090109Z 25019G24KT 14/03 A2974 RMK A01 T01390026  RH  046%=      5-min Rain = 0
KAM1 090110Z 25020G25KT 14/03 A2974 RMK A01 T01390026  RH  046%=      5-min Rain = 0
KAM1 090111Z 25017G22KT 14/03 A2975 RMK A01 T01390026  RH  046%=      5-min Rain = 0
KAM1 090112Z 25018KT 14/03 A2975 RMK A01 T01370025  RH  047%=      5-min Rain = 0
KAM1 090113Z 25017G22KT 14/03 A2975 RMK A01 T01370025  RH  047%=      5-min Rain = 0
KAM1 090114Z 25018G23KT 14/03 A2975 RMK A01 T01360025  RH  047%=      5-min Rain = 0
KAM1 090115Z 25017G23KT 14/03 A2975 RMK A01 T01350026  RH  047%=      5-min Rain = 0
KAM1 090116Z 25018G26KT 14/03 A2975 RMK A01 T01350025  RH  047%=      5-min Rain = 0
KAM1 090117Z 25019G24KT 14/03 A2975 RMK A01 T01360025  RH  047%=      5-min Rain = 0
KAM1 090118Z 25018KT 14/03 A2975 RMK A01 T01360025  RH  047%=      5-min Rain = 0
KAM1 090119Z 25019KT 14/02 A2975 RMK A01 T01360024  RH  047%=      5-min Rain = 0
KAM1 090120Z 25017KT 14/02 A2975 RMK A01 T01360024  RH  047%=      5-min Rain = 0
KAM1 090121Z 25021KT 14/02 A2975 RMK A01 T01360024  RH  047%=      5-min Rain = 0
KAM1 090122Z 26018G23KT 14/02 A2975 RMK A01 T01360024  RH  047%=      5-min Rain = 0
KAM1 090123Z 25019KT 14/02 A2975 RMK A01 T01360024  RH  047%=      5-min Rain = 0
KAM1 090124Z 25017KT 14/02 A2975 RMK A01 T01360024  RH  047%=      5-min Rain = 0
KAM1 090125Z 25018KT 14/02 A2975 RMK A01 T01350024  RH  047%=      5-min Rain = 0
KAM1 090126Z 25017KT 14/02 A2975 RMK A01 T01350024  RH  047%=      5-min Rain = 0
KAM1 090127Z 25019KT 13/02 A2975 RMK A01 T01340024  RH  047%=      5-min Rain = 0
KAM1 090128Z 25016G21KT 13/02 A2975 RMK A01 T01340024  RH  047%=      5-min Rain = 0
KAM1 090129Z 25020G26KT 13/02 A2975 RMK A01 T01340024  RH  047%=      5-min Rain = 0
KAM1 090130Z 25018KT 13/02 A2974 RMK A01 T01340024  RH  047%=      5-min Rain = 0
KAM1 090131Z 25018G23KT 13/02 A2974 RMK A01 T01330024  RH  047%=      5-min Rain = 0
KAM1 090132Z 25019KT 13/02 A2974 RMK A01 T01330024  RH  048%=      5-min Rain = 0
KAM1 090133Z 25017KT 13/02 A2974 RMK A01 T01330024  RH  048%=      5-min Rain = 0
KAM1 090134Z 25018KT 13/02 A2974 RMK A01 T01330024  RH  048%=      5-min Rain = 0
KAM1 090135Z 25019G24KT 13/02 A2974 RMK A01 T01320024  RH  048%=      5-min Rain = 0
KAM1 090136Z 25017KT 13/02 A2974 RMK A01 T01320024  RH  048%=      5-min Rain = 0
KAM1 090137Z 25020G25KT 13/02 A2974 RMK A01 T01310024  RH  048%=      5-min Rain = 0
KAM1 090138Z 24019G24KT 13/03 A2974 RMK A01 T01320025  RH  048%=      5-min Rain = 0
KAM1 090139Z 24020KT 13/03 A2974 RMK A01 T01320025  RH  048%=      5-min Rain = 0
KAM1 090140Z 25020KT 13/03 A2973 RMK A01 T01320025  RH  048%=      5-min Rain = 0
KAM1 090141Z 24019KT 13/03 A2974 RMK A01 T01320025  RH  048%=      5-min Rain = 0
KAM1 090142Z 24017KT 13/03 A2974 RMK A01 T01320025  RH  048%=      5-min Rain = 0
KAM1 090143Z 25019KT 13/03 A2974 RMK A01 T01310025  RH  048%=      5-min Rain = 0
KAM1 090144Z 25020G25KT 13/03 A2974 RMK A01 T01310025  RH  049%=      5-min Rain = 0
KAM1 090145Z 25018KT 13/03 A2974 RMK A01 T01310025  RH  049%=      5-min Rain = 0
KAM1 090146Z 25019G24KT 13/03 A2974 RMK A01 T01310025  RH  049%=      5-min Rain = 0
KAM1 090147Z 25019G24KT 13/03 A2974 RMK A01 T01300025  RH  049%=      5-min Rain = 0
KAM1 090148Z 25017KT 13/03 A2974 RMK A01 T01300025  RH  049%=      5-min Rain = 0
KAM1 090149Z 25018KT 13/03 A2974 RMK A01 T01290025  RH  049%=      5-min Rain = 0
KAM1 090150Z 25018G23KT 13/03 A2974 RMK A01 T01280025  RH  049%=      5-min Rain = 0
KAM1 090151Z 25017G22KT 13/03 A2974 RMK A01 T01280025  RH  049%=      5-min Rain = 0
KAM1 090152Z 25019G25KT 13/02 A2974 RMK A01 T01280024  RH  049%=      5-min Rain = 0
KAM1 090153Z 25018KT 13/02 A2974 RMK A01 T01280024  RH  049%=      5-min Rain = 0
KAM1 090154Z 25019G24KT 13/03 A2974 RMK A01 T01280025  RH  049%=      5-min Rain = 0
KAM1 090155Z 25017KT 13/02 A2974 RMK A01 T01280024  RH  049%=      5-min Rain = 0
KAM1 090156Z 25018G23KT 13/02 A2974 RMK A01 T01270024  RH  049%=      5-min Rain = 0
KAM1 090157Z 25017KT 13/02 A2974 RMK A01 T01260024  RH  049%=      5-min Rain = 0
KAM1 090158Z 25018KT 13/02 A2974 RMK A01 T01270024  RH  049%=      5-min Rain = 0
KAM1 090159Z 25018KT 13/02 A2974 RMK A01 T01260024  RH  050%=      5-min Rain = 0
KAM1 090200Z 25017KT 13/02 A2974 RMK A01 T01260023  RH  050%=      5-min Rain = 0
KAM1 090201Z 25017G22KT 13/02 A2974 RMK A01 T01250023  RH  050%=      5-min Rain = 0
KAM1 090202Z 25017KT 12/02 A2974 RMK A01 T01240023  RH  050%=      5-min Rain = 0
KAM1 090203Z 25018KT 12/02 A2974 RMK A01 T01240023  RH  050%=      5-min Rain = 0
KAM1 090204Z 25017G22KT 12/02 A2974 RMK A01 T01240023  RH  050%=      5-min Rain = 0
KAM1 090205Z 25015KT 12/02 A2974 RMK A01 T01230022  RH  050%=      5-min Rain = 0
KAM1 090206Z 25020KT 12/02 A2974 RMK A01 T01220022  RH  050%=      5-min Rain = 0
KAM1 090207Z 25018G23KT 12/02 A2974 RMK A01 T01220022  RH  050%=      5-min Rain = 0
KAM1 090208Z 25018G23KT 12/02 A2974 RMK A01 T01230022  RH  050%=      5-min Rain = 0
KAM1 090209Z 25018KT 12/02 A2974 RMK A01 T01220022  RH  050%=      5-min Rain = 0
KAM1 090210Z 25017G22KT 12/02 A2974 RMK A01 T01230022  RH  050%=      5-min Rain = 0
KAM1 090211Z 25018KT 12/02 A2974 RMK A01 T01220022  RH  050%=      5-min Rain = 0
KAM1 090212Z 25016KT 12/02 A2974 RMK A01 T01220021  RH  050%=      5-min Rain = 0
KAM1 090213Z 25017G25KT 12/02 A2974 RMK A01 T01210021  RH  050%=      5-min Rain = 0
KAM1 090214Z 25019G25KT 12/02 A2974 RMK A01 T01210021  RH  050%=      5-min Rain = 0
KAM1 090215Z 25018G23KT 12/02 A2974 RMK A01 T01210021  RH  050%=      5-min Rain = 0
KAM1 090216Z 25015KT 12/02 A2974 RMK A01 T01210021  RH  050%=      5-min Rain = 0
KAM1 090217Z 25017KT 12/02 A2974 RMK A01 T01200020  RH  050%=      5-min Rain = 0
KAM1 090218Z 25017KT 12/02 A2974 RMK A01 T01200021  RH  051%=      5-min Rain = 0
KAM1 090219Z 26017KT 12/02 A2974 RMK A01 T01200021  RH  051%=      5-min Rain = 0
KAM1 090220Z 25016KT 12/02 A2975 RMK A01 T01190020  RH  051%=      5-min Rain = 0
KAM1 090221Z 26014G20KT 12/02 A2975 RMK A01 T01190020  RH  051%=      5-min Rain = 0
KAM1 090222Z 26017KT 12/02 A2975 RMK A01 T01180020  RH  051%=      5-min Rain = 0
KAM1 090223Z 26018KT 12/02 A2975 RMK A01 T01180020  RH  051%=      5-min Rain = 0
KAM1 090224Z 26018KT 12/02 A2975 RMK A01 T01180020  RH  051%=      5-min Rain = 0
KAM1 090225Z 25017KT 12/02 A2975 RMK A01 T01180020  RH  051%=      5-min Rain = 0
KAM1 090226Z 25017KT 12/02 A2975 RMK A01 T01180020  RH  051%=      5-min Rain = 0
KAM1 090227Z 26017KT 12/02 A2975 RMK A01 T01170020  RH  051%=      5-min Rain = 0
KAM1 090228Z 25015KT 12/02 A2975 RMK A01 T01170019  RH  051%=      5-min Rain = 0
KAM1 090229Z 25014KT 12/02 A2975 RMK A01 T01160019  RH  051%=      5-min Rain = 0
KAM1 090230Z 25020G25KT 12/02 A2975 RMK A01 T01150019  RH  052%=      5-min Rain = 0
KAM1 090231Z 25017KT 12/02 A2975 RMK A01 T01150019  RH  052%=      5-min Rain = 0
KAM1 090232Z 25016KT 12/02 A2974 RMK A01 T01150019  RH  052%=      5-min Rain = 0
KAM1 090233Z 25018KT 11/02 A2974 RMK A01 T01140019  RH  052%=      5-min Rain = 0
KAM1 090234Z 25018G23KT 11/02 A2974 RMK A01 T01140018  RH  052%=      5-min Rain = 0
KAM1 090235Z 25016G22KT 11/02 A2975 RMK A01 T01140018  RH  052%=      5-min Rain = 0
KAM1 090236Z 25017G23KT 11/02 A2974 RMK A01 T01140018  RH  052%=      5-min Rain = 0
KAM1 090237Z 25018KT 11/02 A2974 RMK A01 T01130018  RH  052%=      5-min Rain = 0
KAM1 090238Z 25017KT 11/02 A2974 RMK A01 T01130018  RH  052%=      5-min Rain = 0
KAM1 090239Z 25017KT 11/02 A2975 RMK A01 T01130018  RH  052%=      5-min Rain = 0
KAM1 090240Z 25016KT 11/02 A2975 RMK A01 T01130018  RH  052%=      5-min Rain = 0
KAM1 090241Z 25015KT 11/02 A2975 RMK A01 T01130018  RH  052%=      5-min Rain = 0
KAM1 090242Z 26017KT 11/02 A2975 RMK A01 T01130017  RH  052%=      5-min Rain = 0
KAM1 090243Z 25017KT 11/02 A2975 RMK A01 T01130018  RH  052%=      5-min Rain = 0
KAM1 090244Z 26019KT 11/02 A2975 RMK A01 T01120017  RH  052%=      5-min Rain = 0
KAM1 090245Z 26017KT 11/02 A2975 RMK A01 T01120017  RH  052%=      5-min Rain = 0
KAM1 090246Z 26018KT 11/02 A2975 RMK A01 T01120017  RH  052%=      5-min Rain = 0
KAM1 090247Z 25019G24KT 11/02 A2975 RMK A01 T01120017  RH  052%=      5-min Rain = 0
KAM1 090248Z 25019KT 11/02 A2975 RMK A01 T01130017  RH  052%=      5-min Rain = 0
KAM1 090249Z 26019KT 11/02 A2975 RMK A01 T01120017  RH  052%=      5-min Rain = 0
KAM1 090250Z 25018G23KT 11/02 A2975 RMK A01 T01120017  RH  052%=      5-min Rain = 0
KAM1 090251Z 25020KT 11/02 A2975 RMK A01 T01120017  RH  052%=      5-min Rain = 0
KAM1 090252Z 25019KT 11/02 A2975 RMK A01 T01120017  RH  052%=      5-min Rain = 0
KAM1 090253Z 25019G25KT 11/02 A2975 RMK A01 T01110017  RH  052%=      5-min Rain = 0
KAM1 090254Z 26020KT 11/02 A2975 RMK A01 T01110017  RH  052%=      5-min Rain = 0
KAM1 090255Z 25018G23KT 11/02 A2975 RMK A01 T01110017  RH  052%=      5-min Rain = 0
KAM1 090256Z 26018KT 11/02 A2975 RMK A01 T01110017  RH  052%=      5-min Rain = 0
KAM1 090257Z 26017KT 11/02 A2975 RMK A01 T01100017  RH  052%=      5-min Rain = 0
KAM1 090258Z 26017KT 11/02 A2975 RMK A01 T01100016  RH  053%=      5-min Rain = 0
KAM1 090259Z 26018KT 11/02 A2974 RMK A01 T01100017  RH  053%=      5-min Rain = 0
KAM1 090300Z 26017G24KT 11/02 A2974 RMK A01 T01090017  RH  053%=      5-min Rain = 0
KAM1 090301Z 26016KT 11/02 A2974 RMK A01 T01090016  RH  053%=      5-min Rain = 0
KAM1 090302Z 26019KT 11/02 A2974 RMK A01 T01080016  RH  053%=      5-min Rain = 0
KAM1 090303Z 26018G23KT 11/02 A2975 RMK A01 T01080016  RH  053%=      5-min Rain = 0
KAM1 090304Z 26018KT 11/02 A2975 RMK A01 T01080016  RH  053%=      5-min Rain = 0
KAM1 090305Z 26017G22KT 11/02 A2975 RMK A01 T01080016  RH  053%=      5-min Rain = 0
KAM1 090306Z 26017G24KT 11/02 A2974 RMK A01 T01070016  RH  053%=      5-min Rain = 0
KAM1 090307Z 26017KT 11/02 A2974 RMK A01 T01070016  RH  054%=      5-min Rain = 0
KAM1 090308Z 26017G22KT 11/02 A2974 RMK A01 T01060016  RH  054%=      5-min Rain = 0
KAM1 090309Z 26019KT 11/02 A2974 RMK A01 T01060016  RH  054%=      5-min Rain = 0
KAM1 090310Z 26019KT 11/02 A2974 RMK A01 T01060016  RH  054%=      5-min Rain = 0
KAM1 090311Z 26020KT 11/02 A2974 RMK A01 T01070017  RH  054%=      5-min Rain = 0
KAM1 090312Z 26018G23KT 11/02 A2974 RMK A01 T01070016  RH  053%=      5-min Rain = 0
KAM1 090313Z 26018G23KT 11/02 A2974 RMK A01 T01070016  RH  053%=      5-min Rain = 0
KAM1 090314Z 26017KT 11/02 A2974 RMK A01 T01070016  RH  053%=      5-min Rain = 0
KAM1 090315Z 26018G24KT 11/02 A2974 RMK A01 T01070016  RH  054%=      5-min Rain = 0
KAM1 090316Z 26019G24KT 11/02 A2974 RMK A01 T01070016  RH  054%=      5-min Rain = 0
KAM1 090317Z 26019G25KT 11/02 A2974 RMK A01 T01070016  RH  054%=      5-min Rain = 0
KAM1 090318Z 26020KT 11/02 A2974 RMK A01 T01070016  RH  053%=      5-min Rain = 0
KAM1 090319Z 26020KT 11/02 A2974 RMK A01 T01070016  RH  053%=      5-min Rain = 0
KAM1 090320Z 26019G25KT 11/02 A2974 RMK A01 T01070016  RH  053%=      5-min Rain = 0
KAM1 090321Z 26021KT 11/02 A2974 RMK A01 T01070017  RH  053%=      5-min Rain = 0
KAM1 090322Z 26021G27KT 11/02 A2974 RMK A01 T01070016  RH  053%=      5-min Rain = 0
KAM1 090323Z 26023KT 11/02 A2974 RMK A01 T01070016  RH  053%=      5-min Rain = 0
KAM1 090324Z 26019G24KT 11/02 A2974 RMK A01 T01070016  RH  053%=      5-min Rain = 0
KAM1 090325Z 26019KT 11/02 A2975 RMK A01 T01070016  RH  053%=      5-min Rain = 0
KAM1 090326Z 26021G27KT 11/02 A2974 RMK A01 T01070016  RH  054%=      5-min Rain = 0
KAM1 090327Z 26020KT 11/02 A2974 RMK A01 T01060016  RH  054%=      5-min Rain = 0
KAM1 090328Z 26019KT 11/02 A2974 RMK A01 T01070016  RH  054%=      5-min Rain = 0
KAM1 090329Z 26019G24KT 11/02 A2974 RMK A01 T01070016  RH  054%=      5-min Rain = 0
KAM1 090330Z 25019G24KT 11/02 A2974 RMK A01 T01060016  RH  054%=      5-min Rain = 0
KAM1 090331Z 25019G24KT 11/02 A2974 RMK A01 T01060016  RH  054%=      5-min Rain = 0
KAM1 090332Z 26019G24KT 11/02 A2975 RMK A01 T01050016  RH  054%=      5-min Rain = 0
KAM1 090333Z 26019KT 11/02 A2975 RMK A01 T01050016  RH  054%=      5-min Rain = 0
KAM1 090334Z 25019KT 11/02 A2975 RMK A01 T01050016  RH  054%=      5-min Rain = 0
KAM1 090335Z 26018KT 10/02 A2975 RMK A01 T01040016  RH  054%=      5-min Rain = 0
KAM1 090336Z 25018KT 10/02 A2975 RMK A01 T01040016  RH  055%=      5-min Rain = 0
KAM1 090337Z 26018KT 10/02 A2975 RMK A01 T01030016  RH  055%=      5-min Rain = 0
KAM1 090338Z 25018KT 10/02 A2975 RMK A01 T01030017  RH  055%=      5-min Rain = 0
KAM1 090339Z 25017KT 10/02 A2975 RMK A01 T01020017  RH  055%=      5-min Rain = 0
KAM1 090340Z 26017KT 10/02 A2975 RMK A01 T01010016  RH  055%=      5-min Rain = 0
KAM1 090341Z 26018KT 10/02 A2975 RMK A01 T01010016  RH  056%=      5-min Rain = 0
KAM1 090342Z 26017KT 10/02 A2975 RMK A01 T01010016  RH  056%=      5-min Rain = 0
KAM1 090343Z 26018KT 10/02 A2975 RMK A01 T01010017  RH  056%=      5-min Rain = 0
KAM1 090344Z 26015KT 10/02 A2975 RMK A01 T01000017  RH  056%=      5-min Rain = 0
KAM1 090345Z 26017KT 10/02 A2975 RMK A01 T00990016  RH  056%=      5-min Rain = 0
KAM1 090346Z 25016G22KT 10/02 A2975 RMK A01 T00990017  RH  057%=      5-min Rain = 0
KAM1 090347Z 26018KT 10/02 A2975 RMK A01 T00990017  RH  057%=      5-min Rain = 0
KAM1 090348Z 26016G21KT 10/02 A2975 RMK A01 T00990017  RH  057%=      5-min Rain = 0
KAM1 090349Z 26017KT 10/02 A2975 RMK A01 T00990017  RH  057%=      5-min Rain = 0
KAM1 090350Z 26020G26KT 10/02 A2975 RMK A01 T00990017  RH  057%=      5-min Rain = 0
KAM1 090351Z 26016KT 10/02 A2975 RMK A01 T01000018  RH  057%=      5-min Rain = 0
KAM1 090352Z 26014KT 10/02 A2974 RMK A01 T01000017  RH  056%=      5-min Rain = 0
KAM1 090353Z 26016KT 10/02 A2974 RMK A01 T00990017  RH  057%=      5-min Rain = 0
KAM1 090354Z 26018KT 10/02 A2974 RMK A01 T00990017  RH  057%=      5-min Rain = 0
KAM1 090355Z 26017KT 10/02 A2974 RMK A01 T00990017  RH  057%=      5-min Rain = 0
KAM1 090356Z 26019KT 10/02 A2974 RMK A01 T00990017  RH  057%=      5-min Rain = 0
KAM1 090357Z 26019KT 10/02 A2974 RMK A01 T01000017  RH  057%=      5-min Rain = 0
KAM1 090358Z 26019G25KT 10/02 A2974 RMK A01 T01000017  RH  056%=      5-min Rain = 0
KAM1 090359Z 26018G24KT 10/02 A2974 RMK A01 T01000018  RH  056%=      5-min Rain = 0
KAM1 090400Z 26018KT 10/02 A2974 RMK A01 T01000018  RH  057%=      5-min Rain = 0
KAM1 090401Z 26016KT 10/02 A2974 RMK A01 T00990017  RH  057%=      5-min Rain = 0
KAM1 090402Z 26016KT 10/02 A2974 RMK A01 T00990018  RH  057%=      5-min Rain = 0
KAM1 090403Z 26017G22KT 10/02 A2974 RMK A01 T00990017  RH  057%=      5-min Rain = 0
KAM1 090404Z 26018G24KT 10/02 A2974 RMK A01 T00990018  RH  057%=      5-min Rain = 0
KAM1 090405Z 26019KT 10/02 A2974 RMK A01 T00990018  RH  057%=      5-min Rain = 0
KAM1 090406Z 25018KT 10/02 A2974 RMK A01 T01000018  RH  057%=      5-min Rain = 0
KAM1 090407Z 26019KT 10/02 A2974 RMK A01 T01000018  RH  057%=      5-min Rain = 0
KAM1 090408Z 26018KT 10/02 A2975 RMK A01 T01000018  RH  057%=      5-min Rain = 0
KAM1 090409Z 26018G23KT 10/02 A2975 RMK A01 T01000018  RH  057%=      5-min Rain = 0
KAM1 090410Z 26019KT 10/02 A2975 RMK A01 T01000018  RH  057%=      5-min Rain = 0
KAM1 090411Z 26018KT 10/02 A2975 RMK A01 T01000018  RH  057%=      5-min Rain = 0
KAM1 090412Z 26017KT 10/02 A2975 RMK A01 T01000018  RH  057%=      5-min Rain = 0
KAM1 090413Z 26020KT 10/02 A2974 RMK A01 T01000018  RH  057%=      5-min Rain = 0
KAM1 090414Z 26019KT 10/02 A2974 RMK A01 T01000018  RH  057%=      5-min Rain = 0
KAM1 090415Z 26019KT 10/02 A2974 RMK A01 T01000018  RH  056%=      5-min Rain = 0
KAM1 090416Z 26019KT 10/02 A2974 RMK A01 T01000017  RH  056%=      5-min Rain = 0
KAM1 090417Z 26019KT 10/02 A2974 RMK A01 T01000018  RH  056%=      5-min Rain = 0
KAM1 090418Z 26019KT 10/02 A2974 RMK A01 T01000018  RH  056%=      5-min Rain = 0
KAM1 090419Z 26018KT 10/02 A2974 RMK A01 T01010018  RH  056%=      5-min Rain = 0
KAM1 090420Z 25017KT 10/02 A2974 RMK A01 T01000018  RH  056%=      5-min Rain = 0
KAM1 090421Z 26018KT 10/02 A2974 RMK A01 T00990017  RH  057%=      5-min Rain = 0
KAM1 090422Z 26017G22KT 10/02 A2974 RMK A01 T00990017  RH  057%=      5-min Rain = 0
KAM1 090423Z 25017G22KT 10/02 A2974 RMK A01 T00990018  RH  057%=      5-min Rain = 0
KAM1 090424Z 26016KT 10/02 A2974 RMK A01 T00990018  RH  057%=      5-min Rain = 0
KAM1 090425Z 25017KT 10/02 A2974 RMK A01 T00990018  RH  057%=      5-min Rain = 0
KAM1 090426Z 25018G24KT 10/02 A2974 RMK A01 T00980017  RH  057%=      5-min Rain = 0
KAM1 090427Z 25017KT 10/02 A2974 RMK A01 T00980017  RH  057%=      5-min Rain = 0
KAM1 090428Z 25018KT 10/02 A2974 RMK A01 T00980017  RH  057%=      5-min Rain = 0
KAM1 090429Z 26015KT 10/02 A2974 RMK A01 T00980017  RH  057%=      5-min Rain = 0
KAM1 090430Z 25016KT 10/02 A2975 RMK A01 T00970017  RH  057%=      5-min Rain = 0
KAM1 090431Z 25017KT 10/02 A2975 RMK A01 T00970018  RH  058%=      5-min Rain = 0
KAM1 090432Z 25017KT 10/02 A2975 RMK A01 T00970018  RH  058%=      5-min Rain = 0
KAM1 090433Z 25015KT 10/02 A2975 RMK A01 T00960018  RH  058%=      5-min Rain = 0
KAM1 090434Z 25016KT 10/02 A2975 RMK A01 T00960018  RH  058%=      5-min Rain = 0
KAM1 090435Z 25015KT 10/02 A2975 RMK A01 T00950018  RH  058%=      5-min Rain = 0
KAM1 090436Z 25017KT 10/02 A2975 RMK A01 T00950018  RH  058%=      5-min Rain = 0
KAM1 090437Z 25017KT 10/02 A2975 RMK A01 T00950018  RH  059%=      5-min Rain = 0
KAM1 090438Z 25017KT 09/02 A2975 RMK A01 T00940017  RH  059%=      5-min Rain = 0
KAM1 090439Z 25017KT 09/02 A2975 RMK A01 T00940018  RH  059%=      5-min Rain = 0
KAM1 090440Z 25017KT 09/02 A2975 RMK A01 T00940018  RH  059%=      5-min Rain = 0
KAM1 090441Z 25017G22KT 09/02 A2975 RMK A01 T00940018  RH  059%=      5-min Rain = 0
KAM1 090442Z 25017KT 09/02 A2975 RMK A01 T00940017  RH  059%=      5-min Rain = 0
KAM1 090443Z 25015KT 09/02 A2975 RMK A01 T00940017  RH  059%=      5-min Rain = 0
KAM1 090444Z 25015KT 09/02 A2975 RMK A01 T00930017  RH  059%=      5-min Rain = 0
KAM1 090445Z 25015KT 09/02 A2975 RMK A01 T00920017  RH  059%=      5-min Rain = 0
KAM1 090446Z 25014KT 09/02 A2975 RMK A01 T00920017  RH  060%=      5-min Rain = 0
KAM1 090447Z 25014KT 09/02 A2975 RMK A01 T00910017  RH  060%=      5-min Rain = 0
KAM1 090448Z 25015KT 09/02 A2975 RMK A01 T00910017  RH  060%=      5-min Rain = 0
KAM1 090449Z 25014KT 09/02 A2975 RMK A01 T00910018  RH  060%=      5-min Rain = 0
KAM1 090450Z 25014KT 09/02 A2975 RMK A01 T00900017  RH  060%=      5-min Rain = 0
KAM1 090451Z 25013KT 09/02 A2975 RMK A01 T00900017  RH  060%=      5-min Rain = 0
KAM1 090452Z 25015KT 09/02 A2975 RMK A01 T00900018  RH  061%=      5-min Rain = 0
KAM1 090453Z 25013KT 09/02 A2975 RMK A01 T00890017  RH  061%=      5-min Rain = 0
KAM1 090454Z 25014KT 09/02 A2975 RMK A01 T00890017  RH  061%=      5-min Rain = 0
KAM1 090455Z 25013KT 09/02 A2975 RMK A01 T00890018  RH  061%=      5-min Rain = 0
KAM1 090456Z 25014KT 09/02 A2975 RMK A01 T00890018  RH  061%=      5-min Rain = 0
KAM1 090457Z 25013KT 09/02 A2975 RMK A01 T00890018  RH  061%=      5-min Rain = 0
KAM1 090458Z 25013KT 09/02 A2975 RMK A01 T00890018  RH  061%=      5-min Rain = 0
KAM1 090459Z 25013KT 09/02 A2975 RMK A01 T00890018  RH  061%=      5-min Rain = 0
KAM1 090500Z 25013KT 09/02 A2975 RMK A01 T00880017  RH  061%=      5-min Rain = 0
KAM1 090501Z 24014KT 09/02 A2975 RMK A01 T00880018  RH  061%=      5-min Rain = 0
KAM1 090502Z 25013KT 09/02 A2975 RMK A01 T00880017  RH  061%=      5-min Rain = 0
KAM1 090503Z 24013KT 09/02 A2976 RMK A01 T00880017  RH  061%=      5-min Rain = 0
KAM1 090504Z 25012KT 09/02 A2976 RMK A01 T00870017  RH  061%=      5-min Rain = 0
KAM1 090505Z 25013KT 09/02 A2976 RMK A01 T00880018  RH  062%=      5-min Rain = 0
KAM1 090506Z 25013KT 09/02 A2976 RMK A01 T00870017  RH  062%=      5-min Rain = 0
KAM1 090507Z 25012KT 09/02 A2976 RMK A01 T00870018  RH  062%=      5-min Rain = 0
KAM1 090508Z 25013KT 09/02 A2976 RMK A01 T00860018  RH  062%=      5-min Rain = 0
KAM1 090509Z 25014KT 09/02 A2976 RMK A01 T00870018  RH  062%=      5-min Rain = 0
KAM1 090510Z 25013KT 09/02 A2976 RMK A01 T00870019  RH  062%=      5-min Rain = 0
KAM1 090511Z 24012KT 09/02 A2976 RMK A01 T00870018  RH  062%=      5-min Rain = 0
KAM1 090512Z 25011KT 09/02 A2976 RMK A01 T00870018  RH  062%=      5-min Rain = 0
KAM1 090513Z 25012KT 09/02 A2976 RMK A01 T00860018  RH  062%=      5-min Rain = 0
KAM1 090514Z 24012KT 09/02 A2976 RMK A01 T00860018  RH  063%=      5-min Rain = 0
KAM1 090515Z 24012KT 09/02 A2976 RMK A01 T00860018  RH  063%=      5-min Rain = 0
KAM1 090516Z 25013KT 09/02 A2976 RMK A01 T00860018  RH  063%=      5-min Rain = 0
KAM1 090517Z 24013KT 09/02 A2976 RMK A01 T00860019  RH  063%=      5-min Rain = 0
KAM1 090518Z 24012KT 09/02 A2976 RMK A01 T00860019  RH  063%=      5-min Rain = 0
KAM1 090519Z 24013KT 09/02 A2976 RMK A01 T00860019  RH  063%=      5-min Rain = 0
KAM1 090520Z 24013KT 09/02 A2976 RMK A01 T00860019  RH  063%=      5-min Rain = 0
KAM1 090521Z 25013KT 09/02 A2976 RMK A01 T00860020  RH  063%=      5-min Rain = 0
KAM1 090522Z 24013KT 09/02 A2976 RMK A01 T00860020  RH  063%=      5-min Rain = 0
KAM1 090523Z 24013KT 09/02 A2976 RMK A01 T00870021  RH  063%=      5-min Rain = 0
KAM1 090524Z 25013KT 09/02 A2976 RMK A01 T00870021  RH  063%=      5-min Rain = 0
KAM1 090525Z 25012KT 09/02 A2976 RMK A01 T00880021  RH  063%=      5-min Rain = 0
KAM1 090526Z 25014KT 09/02 A2976 RMK A01 T00880021  RH  063%=      5-min Rain = 0
KAM1 090527Z 25012KT 09/02 A2976 RMK A01 T00890021  RH  063%=      5-min Rain = 0
KAM1 090528Z 25013KT 09/02 A2976 RMK A01 T00890021  RH  063%=      5-min Rain = 0
KAM1 090529Z 24015KT 09/02 A2976 RMK A01 T00890022  RH  063%=      5-min Rain = 0
KAM1 090530Z 24014KT 09/02 A2976 RMK A01 T00890022  RH  063%=      5-min Rain = 0
KAM1 090531Z 24013KT 09/02 A2976 RMK A01 T00890022  RH  063%=      5-min Rain = 0
KAM1 090532Z 24012KT 09/02 A2976 RMK A01 T00900022  RH  063%=      5-min Rain = 0
KAM1 090533Z 24014KT 09/02 A2976 RMK A01 T00900022  RH  063%=      5-min Rain = 0
KAM1 090534Z 24011KT 09/02 A2976 RMK A01 T00900022  RH  063%=      5-min Rain = 0
KAM1 090535Z 25012KT 09/02 A2976 RMK A01 T00890022  RH  063%=      5-min Rain = 0
KAM1 090536Z 25013KT 09/02 A2976 RMK A01 T00890022  RH  063%=      5-min Rain = 0
KAM1 090537Z 25013KT 09/02 A2976 RMK A01 T00890023  RH  063%=      5-min Rain = 0
KAM1 090538Z 25015KT 09/02 A2976 RMK A01 T00900023  RH  063%=      5-min Rain = 0
KAM1 090539Z 24013KT 09/02 A2976 RMK A01 T00900024  RH  063%=      5-min Rain = 0
KAM1 090540Z 25014KT 09/02 A2976 RMK A01 T00910024  RH  063%=      5-min Rain = 0
KAM1 090541Z 25014KT 09/02 A2976 RMK A01 T00910024  RH  063%=      5-min Rain = 0
KAM1 090542Z 25015KT 09/02 A2976 RMK A01 T00910024  RH  063%=      5-min Rain = 0
KAM1 090543Z 25014KT 09/02 A2976 RMK A01 T00910024  RH  063%=      5-min Rain = 0
KAM1 090544Z 25015KT 09/02 A2976 RMK A01 T00910024  RH  063%=      5-min Rain = 0
KAM1 090545Z 25015G20KT 09/02 A2976 RMK A01 T00910024  RH  063%=      5-min Rain = 0
KAM1 090546Z 24015G20KT 09/02 A2976 RMK A01 T00910024  RH  063%=      5-min Rain = 0
KAM1 090547Z 24015G21KT 09/02 A2976 RMK A01 T00910024  RH  063%=      5-min Rain = 0
KAM1 090548Z 25016KT 09/02 A2976 RMK A01 T00910024  RH  063%=      5-min Rain = 0
KAM1 090549Z 24016G21KT 09/02 A2976 RMK A01 T00920024  RH  063%=      5-min Rain = 0
KAM1 090550Z 24018KT 09/03 A2975 RMK A01 T00930025  RH  062%=      5-min Rain = 0
KAM1 090551Z 24017KT 09/03 A2976 RMK A01 T00940025  RH  062%=      5-min Rain = 0
KAM1 090552Z 25018KT 09/03 A2976 RMK A01 T00940025  RH  062%=      5-min Rain = 0
KAM1 090553Z 25015KT 09/03 A2976 RMK A01 T00940025  RH  062%=      5-min Rain = 0
KAM1 090554Z 25016KT 09/03 A2976 RMK A01 T00940025  RH  062%=      5-min Rain = 0
KAM1 090555Z 25014KT 09/03 A2976 RMK A01 T00940025  RH  062%=      5-min Rain = 0
KAM1 090556Z 25016KT 09/02 A2976 RMK A01 T00930024  RH  062%=      5-min Rain = 0
KAM1 090557Z 25017KT 09/03 A2976 RMK A01 T00930025  RH  062%=      5-min Rain = 0
KAM1 090558Z 25015KT 09/03 A2976 RMK A01 T00930025  RH  062%=      5-min Rain = 0
KAM1 090559Z 25016G21KT 09/03 A2976 RMK A01 T00930025  RH  062%=      5-min Rain = 0

Page generated in 0.1938 seconds.